<?xml version='1.0' encoding='UTF-8'?><gpx version="1.1" creator="JPX - https://github.com/jenetics/jpx" xmlns="http://www.topografix.com/GPX/1/1"><trk><trkseg><trkpt lat="43.344106762480095" lon="11.92172901590141"><ele>320.0</ele><time>2026-04-12T12:11:54.999Z</time></trkpt><trkpt lat="43.34404360315772" lon="11.921641449403815"><ele>320.0</ele><time>2026-04-12T12:11:56.999Z</time></trkpt><trkpt lat="43.34399143242967" lon="11.921568890055113"><ele>320.0</ele><time>2026-04-12T12:11:58.999Z</time></trkpt><trkpt lat="43.34395295629949" lon="11.921487597417626"><ele>320.0</ele><time>2026-04-12T12:12:00.999Z</time></trkpt><trkpt lat="43.34391983905073" lon="11.921391882350187"><ele>320.0</ele><time>2026-04-12T12:12:02.999Z</time></trkpt><trkpt lat="43.3439019380499" lon="11.92128842309821"><ele>320.0</ele><time>2026-04-12T12:12:04.999Z</time></trkpt><trkpt lat="43.3439485595857" lon="11.92113383941695"><ele>320.0</ele><time>2026-04-12T12:12:06.999Z</time></trkpt><trkpt lat="43.3440042799353" lon="11.921087087003952"><ele>320.0</ele><time>2026-04-12T12:12:07.999Z</time></trkpt><trkpt lat="43.34406012565274" lon="11.921030812806052"><ele>320.0</ele><time>2026-04-12T12:12:08.999Z</time></trkpt><trkpt lat="43.34412070643964" lon="11.920941857580646"><ele>320.0</ele><time>2026-04-12T12:12:09.999Z</time></trkpt><trkpt lat="43.3441778702369" lon="11.920827502052076"><ele>320.0</ele><time>2026-04-12T12:12:10.999Z</time></trkpt><trkpt lat="43.344220181781445" lon="11.920693348273511"><ele>320.0</ele><time>2026-04-12T12:12:11.999Z</time></trkpt><trkpt lat="43.3442343840528" lon="11.92056879668333"><ele>318.4</ele><time>2026-04-12T12:12:12.999Z</time></trkpt><trkpt lat="43.34425352676962" lon="11.920441903381427"><ele>316.8</ele><time>2026-04-12T12:12:13.999Z</time></trkpt><trkpt lat="43.34428179950925" lon="11.920316093146912"><ele>315.2</ele><time>2026-04-12T12:12:14.999Z</time></trkpt><trkpt lat="43.3443088610112" lon="11.920199929662699"><ele>313.6</ele><time>2026-04-12T12:12:15.999Z</time></trkpt><trkpt lat="43.34433448867129" lon="11.92008252217855"><ele>312.0</ele><time>2026-04-12T12:12:16.999Z</time></trkpt><trkpt lat="43.344355464077076" lon="11.919962601751633"><ele>310.3333333333333</ele><time>2026-04-12T12:12:17.999Z</time></trkpt><trkpt lat="43.344377802170435" lon="11.919851618325415"><ele>308.6666666666667</ele><time>2026-04-12T12:12:18.999Z</time></trkpt><trkpt lat="43.34440068623769" lon="11.919746584870829"><ele>307.0</ele><time>2026-04-12T12:12:19.999Z</time></trkpt><trkpt lat="43.34442537284531" lon="11.91964992512506"><ele>305.33333333333337</ele><time>2026-04-12T12:12:20.999Z</time></trkpt><trkpt lat="43.34444955701006" lon="11.919548444869633"><ele>303.6666666666667</ele><time>2026-04-12T12:12:21.999Z</time></trkpt><trkpt lat="43.34447626005151" lon="11.919437860209225"><ele>302.0</ele><time>2026-04-12T12:12:22.999Z</time></trkpt><trkpt lat="43.34450431516353" lon="11.919321330180907"><ele>303.0</ele><time>2026-04-12T12:12:23.999Z</time></trkpt><trkpt lat="43.34453469862167" lon="11.919198497114625"><ele>304.0</ele><time>2026-04-12T12:12:24.999Z</time></trkpt><trkpt lat="43.34457871763054" lon="11.91907480342878"><ele>305.0</ele><time>2026-04-12T12:12:25.999Z</time></trkpt><trkpt lat="43.344621432226376" lon="11.918950103783137"><ele>306.0</ele><time>2026-04-12T12:12:26.999Z</time></trkpt><trkpt lat="43.34467164699642" lon="11.918821952418421"><ele>307.0</ele><time>2026-04-12T12:12:27.999Z</time></trkpt><trkpt lat="43.34473130651131" lon="11.918683643092526"><ele>307.0</ele><time>2026-04-12T12:12:28.999Z</time></trkpt><trkpt lat="43.344801692593435" lon="11.918533304343933"><ele>307.0</ele><time>2026-04-12T12:12:29.999Z</time></trkpt><trkpt lat="43.344895525155636" lon="11.9183977851859"><ele>307.0</ele><time>2026-04-12T12:12:30.999Z</time></trkpt><trkpt lat="43.344975505474174" lon="11.91828065308838"><ele>307.0</ele><time>2026-04-12T12:12:31.999Z</time></trkpt><trkpt lat="43.34505230856492" lon="11.918171370663762"><ele>304.2</ele><time>2026-04-12T12:12:32.999Z</time></trkpt><trkpt lat="43.3451141579138" lon="11.918056187030249"><ele>301.4</ele><time>2026-04-12T12:12:33.999Z</time></trkpt><trkpt lat="43.34518500378492" lon="11.917967790889218"><ele>298.6</ele><time>2026-04-12T12:12:34.999Z</time></trkpt><trkpt lat="43.34525275123166" lon="11.917880145138671"><ele>295.8</ele><time>2026-04-12T12:12:35.999Z</time></trkpt><trkpt lat="43.3453156749777" lon="11.91779814712878"><ele>293.0</ele><time>2026-04-12T12:12:36.999Z</time></trkpt><trkpt lat="43.34538583736385" lon="11.91771216226856"><ele>293.0</ele><time>2026-04-12T12:12:37.999Z</time></trkpt><trkpt lat="43.345464512271114" lon="11.917609332452049"><ele>293.0</ele><time>2026-04-12T12:12:38.999Z</time></trkpt><trkpt lat="43.34554414218828" lon="11.917502713033688"><ele>293.0</ele><time>2026-04-12T12:12:39.999Z</time></trkpt><trkpt lat="43.345618547205454" lon="11.917398203575685"><ele>293.0</ele><time>2026-04-12T12:12:40.999Z</time></trkpt><trkpt lat="43.34570100178897" lon="11.917292524277936"><ele>293.0</ele><time>2026-04-12T12:12:41.999Z</time></trkpt><trkpt lat="43.345790106520624" lon="11.917172314671536"><ele>293.0</ele><time>2026-04-12T12:12:42.999Z</time></trkpt><trkpt lat="43.34587801544136" lon="11.917043976447616"><ele>293.0</ele><time>2026-04-12T12:12:43.999Z</time></trkpt><trkpt lat="43.345967838428265" lon="11.916910527397276"><ele>293.0</ele><time>2026-04-12T12:12:44.999Z</time></trkpt><trkpt lat="43.3460504191575" lon="11.916778804574177"><ele>293.0</ele><time>2026-04-12T12:12:45.999Z</time></trkpt><trkpt lat="43.34613400994755" lon="11.916639519749593"><ele>292.5</ele><time>2026-04-12T12:12:46.999Z</time></trkpt><trkpt lat="43.346210479831946" lon="11.916517525287343"><ele>292.0</ele><time>2026-04-12T12:12:47.999Z</time></trkpt><trkpt lat="43.3462865435525" lon="11.916383502474211"><ele>291.5</ele><time>2026-04-12T12:12:48.999Z</time></trkpt><trkpt lat="43.34636368706588" lon="11.916259106092786"><ele>291.0</ele><time>2026-04-12T12:12:49.999Z</time></trkpt><trkpt lat="43.34644221789933" lon="11.916129990535273"><ele>292.75</ele><time>2026-04-12T12:12:50.999Z</time></trkpt><trkpt lat="43.346522386205024" lon="11.915999255968664"><ele>294.5</ele><time>2026-04-12T12:12:51.999Z</time></trkpt><trkpt lat="43.34659574525379" lon="11.91586014228646"><ele>296.25</ele><time>2026-04-12T12:12:52.999Z</time></trkpt><trkpt lat="43.34664900347485" lon="11.915704909388658"><ele>298.0</ele><time>2026-04-12T12:12:53.999Z</time></trkpt><trkpt lat="43.34673798383877" lon="11.915567119722398"><ele>298.0</ele><time>2026-04-12T12:12:54.999Z</time></trkpt><trkpt lat="43.34670913540039" lon="11.915356201469262"><ele>298.0</ele><time>2026-04-12T12:12:55.999Z</time></trkpt><trkpt lat="43.346711022658226" lon="11.915171341310462"><ele>298.0</ele><time>2026-04-12T12:12:56.999Z</time></trkpt><trkpt lat="43.346693081671674" lon="11.915000820283643"><ele>298.0</ele><time>2026-04-12T12:12:57.999Z</time></trkpt><trkpt lat="43.34665934690322" lon="11.914837357119655"><ele>298.25</ele><time>2026-04-12T12:12:58.999Z</time></trkpt><trkpt lat="43.34661730714804" lon="11.914663825212983"><ele>298.5</ele><time>2026-04-12T12:12:59.999Z</time></trkpt><trkpt lat="43.34659159040196" lon="11.914480336551248"><ele>298.75</ele><time>2026-04-12T12:13:00.999Z</time></trkpt><trkpt lat="43.34659445628429" lon="11.914295060997848"><ele>299.0</ele><time>2026-04-12T12:13:01.999Z</time></trkpt><trkpt lat="43.34662728500933" lon="11.914092245394476"><ele>299.0</ele><time>2026-04-12T12:13:02.999Z</time></trkpt><trkpt lat="43.34667326465979" lon="11.913880948908607"><ele>299.0</ele><time>2026-04-12T12:13:03.999Z</time></trkpt><trkpt lat="43.34672172955878" lon="11.913679950005314"><ele>299.0</ele><time>2026-04-12T12:13:04.999Z</time></trkpt><trkpt lat="43.34677031366179" lon="11.9134929884214"><ele>298.25</ele><time>2026-04-12T12:13:05.999Z</time></trkpt><trkpt lat="43.346814900511816" lon="11.913332682931157"><ele>297.5</ele><time>2026-04-12T12:13:06.999Z</time></trkpt><trkpt lat="43.346864807748815" lon="11.91319293688616"><ele>296.75</ele><time>2026-04-12T12:13:07.999Z</time></trkpt><trkpt lat="43.34693352036676" lon="11.913048813648924"><ele>296.0</ele><time>2026-04-12T12:13:08.999Z</time></trkpt><trkpt lat="43.34701921382567" lon="11.91290578545788"><ele>296.0</ele><time>2026-04-12T12:13:09.999Z</time></trkpt><trkpt lat="43.34713188851514" lon="11.912764963529375"><ele>296.0</ele><time>2026-04-12T12:13:10.999Z</time></trkpt><trkpt lat="43.347254491305506" lon="11.912631042581276"><ele>296.0</ele><time>2026-04-12T12:13:11.999Z</time></trkpt><trkpt lat="43.34736705770244" lon="11.912506334817632"><ele>294.25</ele><time>2026-04-12T12:13:12.999Z</time></trkpt><trkpt lat="43.34748804144887" lon="11.912385990650746"><ele>292.5</ele><time>2026-04-12T12:13:13.999Z</time></trkpt><trkpt lat="43.3476023370884" lon="11.912274940519307"><ele>290.75</ele><time>2026-04-12T12:13:14.999Z</time></trkpt><trkpt lat="43.34771416810457" lon="11.912162542547831"><ele>289.0</ele><time>2026-04-12T12:13:15.999Z</time></trkpt><trkpt lat="43.34781705264293" lon="11.912035574378637"><ele>289.0</ele><time>2026-04-12T12:13:16.999Z</time></trkpt><trkpt lat="43.34790470326982" lon="11.911904714194355"><ele>289.0</ele><time>2026-04-12T12:13:17.999Z</time></trkpt><trkpt lat="43.347985647170546" lon="11.911770068651238"><ele>289.0</ele><time>2026-04-12T12:13:18.999Z</time></trkpt><trkpt lat="43.348057398839586" lon="11.911641923594146"><ele>289.0</ele><time>2026-04-12T12:13:19.999Z</time></trkpt><trkpt lat="43.34813038837107" lon="11.911530443510255"><ele>287.8333333333333</ele><time>2026-04-12T12:13:20.999Z</time></trkpt><trkpt lat="43.348196449857376" lon="11.911426508005558"><ele>286.66666666666663</ele><time>2026-04-12T12:13:21.999Z</time></trkpt><trkpt lat="43.34826392610981" lon="11.911326482927802"><ele>285.5</ele><time>2026-04-12T12:13:22.999Z</time></trkpt><trkpt lat="43.34832460367536" lon="11.911239207116093"><ele>284.3333333333333</ele><time>2026-04-12T12:13:23.999Z</time></trkpt><trkpt lat="43.34837682929201" lon="11.911167227965999"><ele>283.1666666666667</ele><time>2026-04-12T12:13:24.999Z</time></trkpt><trkpt lat="43.34840337349961" lon="11.911084405320697"><ele>282.0</ele><time>2026-04-12T12:13:27.999Z</time></trkpt><trkpt lat="43.348294191033155" lon="11.911039492489046"><ele>282.0</ele><time>2026-04-12T12:13:29.999Z</time></trkpt><trkpt lat="43.348222763581425" lon="11.911109522201082"><ele>282.0</ele><time>2026-04-12T12:13:30.999Z</time></trkpt><trkpt lat="43.34813985943033" lon="11.911188923723385"><ele>282.0</ele><time>2026-04-12T12:13:31.999Z</time></trkpt><trkpt lat="43.348038310077534" lon="11.911260233771172"><ele>282.0</ele><time>2026-04-12T12:13:32.999Z</time></trkpt><trkpt lat="43.347922642295195" lon="11.911328225737076"><ele>282.0</ele><time>2026-04-12T12:13:33.999Z</time></trkpt><trkpt lat="43.34779437405787" lon="11.911386752834895"><ele>281.3333333333333</ele><time>2026-04-12T12:13:34.999Z</time></trkpt><trkpt lat="43.347645779227136" lon="11.911443256203201"><ele>280.66666666666663</ele><time>2026-04-12T12:13:35.999Z</time></trkpt><trkpt lat="43.347480074533784" lon="11.911503979764865"><ele>280.0</ele><time>2026-04-12T12:13:36.999Z</time></trkpt><trkpt lat="43.34732253383042" lon="11.91156177255185"><ele>279.75</ele><time>2026-04-12T12:13:37.999Z</time></trkpt><trkpt lat="43.34716244922212" lon="11.9116235394802"><ele>279.5</ele><time>2026-04-12T12:13:38.999Z</time></trkpt><trkpt lat="43.34702299888474" lon="11.911677719419625"><ele>279.25</ele><time>2026-04-12T12:13:39.999Z</time></trkpt><trkpt lat="43.346916538401445" lon="11.911714857345157"><ele>279.0</ele><time>2026-04-12T12:13:40.999Z</time></trkpt><trkpt lat="43.34681827948365" lon="11.911733462432975"><ele>279.0</ele><time>2026-04-12T12:13:41.999Z</time></trkpt><trkpt lat="43.34672599831842" lon="11.91170700045261"><ele>279.0</ele><time>2026-04-12T12:13:42.999Z</time></trkpt><trkpt lat="43.34664432971797" lon="11.91163127720491"><ele>279.0</ele><time>2026-04-12T12:13:43.999Z</time></trkpt><trkpt lat="43.34656345193152" lon="11.911513147527389"><ele>279.0</ele><time>2026-04-12T12:13:44.999Z</time></trkpt><trkpt lat="43.346470344572545" lon="11.91138131155421"><ele>279.0</ele><time>2026-04-12T12:13:45.999Z</time></trkpt><trkpt lat="43.34636185320668" lon="11.91124620715534"><ele>277.0</ele><time>2026-04-12T12:13:46.999Z</time></trkpt><trkpt lat="43.34624850869112" lon="11.911117110330457"><ele>275.0</ele><time>2026-04-12T12:13:47.999Z</time></trkpt><trkpt lat="43.34613434461205" lon="11.910988968324165"><ele>273.0</ele><time>2026-04-12T12:13:48.999Z</time></trkpt><trkpt lat="43.34600871767699" lon="11.910849356495847"><ele>272.0</ele><time>2026-04-12T12:13:49.999Z</time></trkpt><trkpt lat="43.34588354572449" lon="11.91071195651819"><ele>271.0</ele><time>2026-04-12T12:13:50.999Z</time></trkpt><trkpt lat="43.345767062542386" lon="11.910572518280732"><ele>270.0</ele><time>2026-04-12T12:13:51.999Z</time></trkpt><trkpt lat="43.34564884396439" lon="11.910424861125492"><ele>269.6666666666667</ele><time>2026-04-12T12:13:52.999Z</time></trkpt><trkpt lat="43.345530690776606" lon="11.9102757845608"><ele>269.33333333333337</ele><time>2026-04-12T12:13:53.999Z</time></trkpt><trkpt lat="43.34542109955846" lon="11.910129472965261"><ele>269.0</ele><time>2026-04-12T12:13:54.999Z</time></trkpt><trkpt lat="43.34530715526218" lon="11.909981971296244"><ele>268.5</ele><time>2026-04-12T12:13:55.999Z</time></trkpt><trkpt lat="43.34519855532989" lon="11.909832947091703"><ele>268.0</ele><time>2026-04-12T12:13:56.999Z</time></trkpt><trkpt lat="43.34508818033661" lon="11.909685493819453"><ele>267.5</ele><time>2026-04-12T12:13:57.999Z</time></trkpt><trkpt lat="43.34498771790224" lon="11.909552644792038"><ele>267.0</ele><time>2026-04-12T12:13:58.999Z</time></trkpt><trkpt lat="43.344882133739965" lon="11.909415790227056"><ele>267.0</ele><time>2026-04-12T12:13:59.999Z</time></trkpt><trkpt lat="43.344786816089915" lon="11.909295671296091"><ele>267.0</ele><time>2026-04-12T12:14:00.999Z</time></trkpt><trkpt lat="43.34469505491916" lon="11.909174142480502"><ele>267.0</ele><time>2026-04-12T12:14:01.999Z</time></trkpt><trkpt lat="43.34459724139123" lon="11.909045713848919"><ele>267.0</ele><time>2026-04-12T12:14:02.999Z</time></trkpt><trkpt lat="43.34450897263961" lon="11.908926969053926"><ele>266.6</ele><time>2026-04-12T12:14:03.999Z</time></trkpt><trkpt lat="43.3444252493309" lon="11.908819991384597"><ele>266.2</ele><time>2026-04-12T12:14:04.999Z</time></trkpt><trkpt lat="43.34435188921938" lon="11.908717444871373"><ele>265.8</ele><time>2026-04-12T12:14:05.999Z</time></trkpt><trkpt lat="43.34428102509583" lon="11.908620781830374"><ele>265.4</ele><time>2026-04-12T12:14:06.999Z</time></trkpt><trkpt lat="43.34420950584969" lon="11.908531098757916"><ele>265.0</ele><time>2026-04-12T12:14:07.999Z</time></trkpt><trkpt lat="43.34415572570341" lon="11.908441249879058"><ele>264.8</ele><time>2026-04-12T12:14:08.999Z</time></trkpt><trkpt lat="43.344124673281016" lon="11.90833936901271"><ele>264.6</ele><time>2026-04-12T12:14:09.999Z</time></trkpt><trkpt lat="43.34410432253682" lon="11.908255380247555"><ele>264.4</ele><time>2026-04-12T12:14:10.999Z</time></trkpt><trkpt lat="43.34416281865405" lon="11.908124291892026"><ele>264.2</ele><time>2026-04-12T12:14:11.999Z</time></trkpt><trkpt lat="43.34424226404214" lon="11.908017048580053"><ele>264.0</ele><time>2026-04-12T12:14:12.999Z</time></trkpt><trkpt lat="43.34430561040029" lon="11.907866497440741"><ele>264.0</ele><time>2026-04-12T12:14:13.999Z</time></trkpt><trkpt lat="43.34439813662303" lon="11.907715651466413"><ele>264.0</ele><time>2026-04-12T12:14:14.999Z</time></trkpt><trkpt lat="43.34448742568675" lon="11.907549627700023"><ele>264.0</ele><time>2026-04-12T12:14:15.999Z</time></trkpt><trkpt lat="43.34456582299699" lon="11.90739062373358"><ele>264.0</ele><time>2026-04-12T12:14:16.999Z</time></trkpt><trkpt lat="43.34463952890928" lon="11.907253147113108"><ele>263.75</ele><time>2026-04-12T12:14:17.999Z</time></trkpt><trkpt lat="43.34471516750317" lon="11.907108289786674"><ele>263.5</ele><time>2026-04-12T12:14:18.999Z</time></trkpt><trkpt lat="43.34478810806505" lon="11.906941698170444"><ele>263.25</ele><time>2026-04-12T12:14:19.999Z</time></trkpt><trkpt lat="43.34484190601602" lon="11.906781701303041"><ele>263.0</ele><time>2026-04-12T12:14:20.999Z</time></trkpt><trkpt lat="43.34488198581434" lon="11.906645031593328"><ele>262.8</ele><time>2026-04-12T12:14:21.999Z</time></trkpt><trkpt lat="43.34493438457461" lon="11.906526323064377"><ele>262.6</ele><time>2026-04-12T12:14:22.999Z</time></trkpt><trkpt lat="43.34499832210388" lon="11.90641665415654"><ele>262.4</ele><time>2026-04-12T12:14:23.999Z</time></trkpt><trkpt lat="43.34505365403978" lon="11.906318725629378"><ele>262.2</ele><time>2026-04-12T12:14:24.999Z</time></trkpt><trkpt lat="43.34508512700653" lon="11.906207233269752"><ele>262.0</ele><time>2026-04-12T12:14:25.999Z</time></trkpt><trkpt lat="43.34509326569645" lon="11.906091498217009"><ele>262.0</ele><time>2026-04-12T12:14:26.999Z</time></trkpt><trkpt lat="43.34505866759642" lon="11.905970010397652"><ele>262.0</ele><time>2026-04-12T12:14:27.999Z</time></trkpt><trkpt lat="43.34497760632021" lon="11.90587576297926"><ele>262.0</ele><time>2026-04-12T12:14:28.999Z</time></trkpt><trkpt lat="43.34487263601738" lon="11.905852885215257"><ele>262.0</ele><time>2026-04-12T12:14:29.999Z</time></trkpt><trkpt lat="43.34477431734001" lon="11.905858244162676"><ele>262.0</ele><time>2026-04-12T12:14:30.999Z</time></trkpt><trkpt lat="43.34468489851596" lon="11.905905949625149"><ele>262.0</ele><time>2026-04-12T12:14:31.999Z</time></trkpt><trkpt lat="43.34462911760218" lon="11.90601796827548"><ele>262.0</ele><time>2026-04-12T12:14:32.999Z</time></trkpt><trkpt lat="43.34460293221673" lon="11.90614944552429"><ele>262.0</ele><time>2026-04-12T12:14:33.999Z</time></trkpt><trkpt lat="43.344475775661905" lon="11.906224187503293"><ele>262.0</ele><time>2026-04-12T12:14:34.999Z</time></trkpt><trkpt lat="43.344370334262514" lon="11.906253826122947"><ele>262.0</ele><time>2026-04-12T12:14:35.999Z</time></trkpt><trkpt lat="43.34428309518732" lon="11.906311031176708"><ele>262.0</ele><time>2026-04-12T12:14:36.999Z</time></trkpt><trkpt lat="43.34415269843825" lon="11.906119939932541"><ele>262.0</ele><time>2026-04-12T12:14:37.999Z</time></trkpt><trkpt lat="43.34401245172999" lon="11.906057851619229"><ele>262.0</ele><time>2026-04-12T12:14:38.999Z</time></trkpt><trkpt lat="43.34386801491407" lon="11.905980563294023"><ele>261.3333333333333</ele><time>2026-04-12T12:14:39.999Z</time></trkpt><trkpt lat="43.343723063811105" lon="11.905914207252703"><ele>260.6666666666667</ele><time>2026-04-12T12:14:40.999Z</time></trkpt><trkpt lat="43.34357345629512" lon="11.905847690275934"><ele>260.0</ele><time>2026-04-12T12:14:41.999Z</time></trkpt><trkpt lat="43.34341955997183" lon="11.90578391159186"><ele>260.0</ele><time>2026-04-12T12:14:42.999Z</time></trkpt><trkpt lat="43.34326102958503" lon="11.905716753413994"><ele>260.0</ele><time>2026-04-12T12:14:43.999Z</time></trkpt><trkpt lat="43.34310389797909" lon="11.905646856892607"><ele>260.0</ele><time>2026-04-12T12:14:44.999Z</time></trkpt><trkpt lat="43.34294996725169" lon="11.905580143359396"><ele>260.0</ele><time>2026-04-12T12:14:45.999Z</time></trkpt><trkpt lat="43.34279587339634" lon="11.905511200911034"><ele>260.0</ele><time>2026-04-12T12:14:46.999Z</time></trkpt><trkpt lat="43.34265511662741" lon="11.905441375350014"><ele>260.0</ele><time>2026-04-12T12:14:47.999Z</time></trkpt><trkpt lat="43.342529453790775" lon="11.905363173766245"><ele>260.0</ele><time>2026-04-12T12:14:48.999Z</time></trkpt><trkpt lat="43.342430510127144" lon="11.905234329783703"><ele>260.0</ele><time>2026-04-12T12:14:49.999Z</time></trkpt><trkpt lat="43.34231212611898" lon="11.905101947785514"><ele>260.0</ele><time>2026-04-12T12:14:50.999Z</time></trkpt><trkpt lat="43.34222705074004" lon="11.904901766318325"><ele>259.25</ele><time>2026-04-12T12:14:51.999Z</time></trkpt><trkpt lat="43.34213118683336" lon="11.904746413966972"><ele>258.5</ele><time>2026-04-12T12:14:52.999Z</time></trkpt><trkpt lat="43.342039344504805" lon="11.90459121622931"><ele>257.75</ele><time>2026-04-12T12:14:53.999Z</time></trkpt><trkpt lat="43.34192655615183" lon="11.904469642961466"><ele>257.0</ele><time>2026-04-12T12:14:54.999Z</time></trkpt><trkpt lat="43.3418073970396" lon="11.90437726484484"><ele>257.0</ele><time>2026-04-12T12:14:55.999Z</time></trkpt><trkpt lat="43.34168903468896" lon="11.904315967444099"><ele>257.0</ele><time>2026-04-12T12:14:56.999Z</time></trkpt><trkpt lat="43.34157546003378" lon="11.90427208517673"><ele>257.0</ele><time>2026-04-12T12:14:57.999Z</time></trkpt><trkpt lat="43.341480389238576" lon="11.904205539713903"><ele>257.0</ele><time>2026-04-12T12:14:58.999Z</time></trkpt><trkpt lat="43.34142148170389" lon="11.90409625974567"><ele>257.0</ele><time>2026-04-12T12:14:59.999Z</time></trkpt><trkpt lat="43.3414137196993" lon="11.903955693568136"><ele>257.0</ele><time>2026-04-12T12:15:00.999Z</time></trkpt><trkpt lat="43.34142239252541" lon="11.903806497813028"><ele>257.0</ele><time>2026-04-12T12:15:01.999Z</time></trkpt><trkpt lat="43.341434547410664" lon="11.903627409379688"><ele>257.0</ele><time>2026-04-12T12:15:02.999Z</time></trkpt><trkpt lat="43.341431565208275" lon="11.903422591978398"><ele>256.6666666666667</ele><time>2026-04-12T12:15:03.999Z</time></trkpt><trkpt lat="43.34141526479892" lon="11.903195067792685"><ele>256.3333333333333</ele><time>2026-04-12T12:15:04.999Z</time></trkpt><trkpt lat="43.341364362003944" lon="11.902965422699745"><ele>256.0</ele><time>2026-04-12T12:15:05.999Z</time></trkpt><trkpt lat="43.3412782722565" lon="11.902750322524993"><ele>255.66666666666666</ele><time>2026-04-12T12:15:06.999Z</time></trkpt><trkpt lat="43.34116049843448" lon="11.902544663640427"><ele>255.33333333333331</ele><time>2026-04-12T12:15:07.999Z</time></trkpt><trkpt lat="43.34102932322041" lon="11.90233844332357"><ele>255.0</ele><time>2026-04-12T12:15:08.999Z</time></trkpt><trkpt lat="43.34090174310348" lon="11.902133659418837"><ele>255.0</ele><time>2026-04-12T12:15:09.999Z</time></trkpt><trkpt lat="43.34078086185624" lon="11.901933592076315"><ele>255.0</ele><time>2026-04-12T12:15:10.999Z</time></trkpt><trkpt lat="43.34065208028605" lon="11.901718316014044"><ele>255.0</ele><time>2026-04-12T12:15:11.999Z</time></trkpt><trkpt lat="43.34051913678521" lon="11.901495320495158"><ele>254.66666666666669</ele><time>2026-04-12T12:15:12.999Z</time></trkpt><trkpt lat="43.340384549704794" lon="11.901263600748292"><ele>254.33333333333334</ele><time>2026-04-12T12:15:13.999Z</time></trkpt><trkpt lat="43.34024904986677" lon="11.90103602198669"><ele>254.0</ele><time>2026-04-12T12:15:14.999Z</time></trkpt><trkpt lat="43.340110186319336" lon="11.900808942662177"><ele>254.0</ele><time>2026-04-12T12:15:15.999Z</time></trkpt><trkpt lat="43.339974037826615" lon="11.900580444303383"><ele>254.0</ele><time>2026-04-12T12:15:16.999Z</time></trkpt><trkpt lat="43.33984227168024" lon="11.900346709938873"><ele>254.0</ele><time>2026-04-12T12:15:17.999Z</time></trkpt><trkpt lat="43.3397104121964" lon="11.90010633850933"><ele>253.66666666666669</ele><time>2026-04-12T12:15:18.999Z</time></trkpt><trkpt lat="43.339590023573265" lon="11.899876678700796"><ele>253.33333333333331</ele><time>2026-04-12T12:15:19.999Z</time></trkpt><trkpt lat="43.33947692982774" lon="11.899648546202183"><ele>253.0</ele><time>2026-04-12T12:15:20.999Z</time></trkpt><trkpt lat="43.33936011687264" lon="11.899411326125353"><ele>253.33333333333331</ele><time>2026-04-12T12:15:21.999Z</time></trkpt><trkpt lat="43.33924757815722" lon="11.899167728958034"><ele>253.66666666666669</ele><time>2026-04-12T12:15:22.999Z</time></trkpt><trkpt lat="43.33914510974537" lon="11.89891062212155"><ele>254.0</ele><time>2026-04-12T12:15:23.999Z</time></trkpt><trkpt lat="43.33905484562047" lon="11.898639072469283"><ele>253.66666666666669</ele><time>2026-04-12T12:15:24.999Z</time></trkpt><trkpt lat="43.33898215246526" lon="11.89835700668841"><ele>253.33333333333331</ele><time>2026-04-12T12:15:25.999Z</time></trkpt><trkpt lat="43.33892294192641" lon="11.898068281406973"><ele>253.0</ele><time>2026-04-12T12:15:26.999Z</time></trkpt><trkpt lat="43.33886888862801" lon="11.89777679756103"><ele>252.66666666666666</ele><time>2026-04-12T12:15:27.999Z</time></trkpt><trkpt lat="43.33881225501691" lon="11.897487071330252"><ele>252.33333333333331</ele><time>2026-04-12T12:15:28.999Z</time></trkpt><trkpt lat="43.33874887416282" lon="11.897193391663144"><ele>252.0</ele><time>2026-04-12T12:15:29.999Z</time></trkpt><trkpt lat="43.33867134802083" lon="11.896903227461726"><ele>252.0</ele><time>2026-04-12T12:15:30.999Z</time></trkpt><trkpt lat="43.3385732756189" lon="11.896616817666189"><ele>252.0</ele><time>2026-04-12T12:15:31.999Z</time></trkpt><trkpt lat="43.338461842559575" lon="11.896347231412804"><ele>252.0</ele><time>2026-04-12T12:15:32.999Z</time></trkpt><trkpt lat="43.33834091840166" lon="11.896078783693808"><ele>252.0</ele><time>2026-04-12T12:15:33.999Z</time></trkpt><trkpt lat="43.33822801201218" lon="11.895811709057483"><ele>252.33333333333331</ele><time>2026-04-12T12:15:34.999Z</time></trkpt><trkpt lat="43.33811806458809" lon="11.89554289877485"><ele>252.66666666666666</ele><time>2026-04-12T12:15:35.999Z</time></trkpt><trkpt lat="43.338016224464184" lon="11.895270131525622"><ele>253.0</ele><time>2026-04-12T12:15:36.999Z</time></trkpt><trkpt lat="43.33792168832529" lon="11.894990791344172"><ele>253.0</ele><time>2026-04-12T12:15:37.999Z</time></trkpt><trkpt lat="43.337836684212945" lon="11.894703386650079"><ele>253.0</ele><time>2026-04-12T12:15:38.999Z</time></trkpt><trkpt lat="43.33776412681384" lon="11.894408994318912"><ele>253.5</ele><time>2026-04-12T12:15:39.999Z</time></trkpt><trkpt lat="43.33769881596799" lon="11.894108194884984"><ele>254.0</ele><time>2026-04-12T12:15:40.999Z</time></trkpt><trkpt lat="43.33762980191799" lon="11.893803208992626"><ele>254.0</ele><time>2026-04-12T12:15:41.999Z</time></trkpt><trkpt lat="43.33755919195597" lon="11.893501923649307"><ele>254.0</ele><time>2026-04-12T12:15:42.999Z</time></trkpt><trkpt lat="43.33748867857592" lon="11.893197344059937"><ele>253.5</ele><time>2026-04-12T12:15:43.999Z</time></trkpt><trkpt lat="43.3374184426329" lon="11.892889638146688"><ele>253.0</ele><time>2026-04-12T12:15:44.999Z</time></trkpt><trkpt lat="43.337346750481416" lon="11.892580452358494"><ele>252.5</ele><time>2026-04-12T12:15:45.999Z</time></trkpt><trkpt lat="43.33727651274443" lon="11.892281570458424"><ele>252.0</ele><time>2026-04-12T12:15:46.999Z</time></trkpt><trkpt lat="43.337206624835545" lon="11.891985595873276"><ele>251.66666666666669</ele><time>2026-04-12T12:15:47.999Z</time></trkpt><trkpt lat="43.337146931166124" lon="11.891698502654354"><ele>251.33333333333334</ele><time>2026-04-12T12:15:48.999Z</time></trkpt><trkpt lat="43.3371253093735" lon="11.89139525603594"><ele>251.0</ele><time>2026-04-12T12:15:49.999Z</time></trkpt><trkpt lat="43.337088915376526" lon="11.891082531056716"><ele>251.0</ele><time>2026-04-12T12:15:50.999Z</time></trkpt><trkpt lat="43.33706664120593" lon="11.890773463403821"><ele>251.0</ele><time>2026-04-12T12:15:51.999Z</time></trkpt><trkpt lat="43.337024409889416" lon="11.890477525238326"><ele>251.0</ele><time>2026-04-12T12:15:52.999Z</time></trkpt><trkpt lat="43.336958707886154" lon="11.890193871605506"><ele>251.0</ele><time>2026-04-12T12:15:53.999Z</time></trkpt><trkpt lat="43.33685826427984" lon="11.889917229270793"><ele>251.0</ele><time>2026-04-12T12:15:54.999Z</time></trkpt><trkpt lat="43.33672926761323" lon="11.889642772728624"><ele>251.0</ele><time>2026-04-12T12:15:55.999Z</time></trkpt><trkpt lat="43.33659510347802" lon="11.889366911341265"><ele>251.0</ele><time>2026-04-12T12:15:56.999Z</time></trkpt><trkpt lat="43.33646625232047" lon="11.889085339123021"><ele>250.0</ele><time>2026-04-12T12:15:57.999Z</time></trkpt><trkpt lat="43.33634313460439" lon="11.888809814594191"><ele>249.0</ele><time>2026-04-12T12:15:58.999Z</time></trkpt><trkpt lat="43.33622553858916" lon="11.888536783256573"><ele>249.33333333333331</ele><time>2026-04-12T12:15:59.999Z</time></trkpt><trkpt lat="43.33611581753076" lon="11.888277667623552"><ele>249.66666666666666</ele><time>2026-04-12T12:16:00.999Z</time></trkpt><trkpt lat="43.336015798689225" lon="11.888031540116954"><ele>250.0</ele><time>2026-04-12T12:16:01.999Z</time></trkpt><trkpt lat="43.33595305109741" lon="11.887763695613101"><ele>250.0</ele><time>2026-04-12T12:16:02.999Z</time></trkpt><trkpt lat="43.335899913784615" lon="11.887484089588535"><ele>250.0</ele><time>2026-04-12T12:16:03.999Z</time></trkpt><trkpt lat="43.33585625630091" lon="11.887177186576574"><ele>250.0</ele><time>2026-04-12T12:16:04.999Z</time></trkpt><trkpt lat="43.33581293131269" lon="11.8868651326576"><ele>250.0</ele><time>2026-04-12T12:16:05.999Z</time></trkpt><trkpt lat="43.33577986892375" lon="11.886541818071917"><ele>250.0</ele><time>2026-04-12T12:16:06.999Z</time></trkpt><trkpt lat="43.33574637727178" lon="11.886218129660014"><ele>250.66666666666666</ele><time>2026-04-12T12:16:07.999Z</time></trkpt><trkpt lat="43.3357147526823" lon="11.885904685666924"><ele>251.33333333333331</ele><time>2026-04-12T12:16:08.999Z</time></trkpt><trkpt lat="43.335688446272584" lon="11.885617230860115"><ele>252.0</ele><time>2026-04-12T12:16:09.999Z</time></trkpt><trkpt lat="43.33566249139551" lon="11.885354573018008"><ele>252.0</ele><time>2026-04-12T12:16:10.999Z</time></trkpt><trkpt lat="43.335633835018555" lon="11.885111891762294"><ele>252.0</ele><time>2026-04-12T12:16:11.999Z</time></trkpt><trkpt lat="43.335605615035114" lon="11.88488201616091"><ele>252.0</ele><time>2026-04-12T12:16:12.999Z</time></trkpt><trkpt lat="43.33558138903151" lon="11.884656488316992"><ele>252.0</ele><time>2026-04-12T12:16:13.999Z</time></trkpt><trkpt lat="43.335559197690266" lon="11.884436447060496"><ele>252.0</ele><time>2026-04-12T12:16:14.999Z</time></trkpt><trkpt lat="43.335536477679405" lon="11.884212605300823"><ele>252.0</ele><time>2026-04-12T12:16:15.999Z</time></trkpt><trkpt lat="43.33551090539684" lon="11.883996122373247"><ele>252.0</ele><time>2026-04-12T12:16:16.999Z</time></trkpt><trkpt lat="43.33548811826522" lon="11.883801266737894"><ele>252.0</ele><time>2026-04-12T12:16:17.999Z</time></trkpt><trkpt lat="43.335467877616814" lon="11.8836165248705"><ele>252.0</ele><time>2026-04-12T12:16:19Z</time></trkpt><trkpt lat="43.33544768457605" lon="11.88343951815434"><ele>252.0</ele><time>2026-04-12T12:16:20Z</time></trkpt><trkpt lat="43.33542799414554" lon="11.883275248322933"><ele>252.0</ele><time>2026-04-12T12:16:21Z</time></trkpt><trkpt lat="43.335416243765685" lon="11.88312459877154"><ele>252.0</ele><time>2026-04-12T12:16:22Z</time></trkpt><trkpt lat="43.33540349213015" lon="11.88297229490885"><ele>252.0</ele><time>2026-04-12T12:16:23Z</time></trkpt><trkpt lat="43.335388046991675" lon="11.882829120074547"><ele>252.0</ele><time>2026-04-12T12:16:24Z</time></trkpt><trkpt lat="43.33537979892272" lon="11.882689836734881"><ele>252.0</ele><time>2026-04-12T12:16:25Z</time></trkpt><trkpt lat="43.33537514828687" lon="11.882562612078795"><ele>252.5</ele><time>2026-04-12T12:16:26Z</time></trkpt><trkpt lat="43.335368803531516" lon="11.88245140054886"><ele>253.0</ele><time>2026-04-12T12:16:27Z</time></trkpt><trkpt lat="43.33535756135682" lon="11.882312551086324"><ele>253.5</ele><time>2026-04-12T12:16:29Z</time></trkpt><trkpt lat="43.335351870124555" lon="11.882209896394546"><ele>254.0</ele><time>2026-04-12T12:16:32Z</time></trkpt><trkpt lat="43.335335908086826" lon="11.882101959766738"><ele>254.5</ele><time>2026-04-12T12:16:43Z</time></trkpt><trkpt lat="43.335323095402124" lon="11.882011055576399"><ele>255.0</ele><time>2026-04-12T12:16:44Z</time></trkpt><trkpt lat="43.33531696818661" lon="11.881886436665832"><ele>255.0</ele><time>2026-04-12T12:16:45Z</time></trkpt><trkpt lat="43.3352994532927" lon="11.881756573872975"><ele>255.0</ele><time>2026-04-12T12:16:46Z</time></trkpt><trkpt lat="43.335277554436686" lon="11.881635713219108"><ele>255.0</ele><time>2026-04-12T12:16:47Z</time></trkpt><trkpt lat="43.3352399914984" lon="11.881451655833496"><ele>255.0</ele><time>2026-04-12T12:16:48Z</time></trkpt><trkpt lat="43.335211500342815" lon="11.881288672032191"><ele>255.0</ele><time>2026-04-12T12:16:49Z</time></trkpt><trkpt lat="43.33517831217967" lon="11.881097091907002"><ele>255.0</ele><time>2026-04-12T12:16:50Z</time></trkpt><trkpt lat="43.33513845459175" lon="11.880899018614777"><ele>255.0</ele><time>2026-04-12T12:16:51Z</time></trkpt><trkpt lat="43.33511221372286" lon="11.880706875673768"><ele>255.0</ele><time>2026-04-12T12:16:52Z</time></trkpt><trkpt lat="43.33509589602903" lon="11.88050255330485"><ele>255.0</ele><time>2026-04-12T12:16:53Z</time></trkpt><trkpt lat="43.335094171863695" lon="11.880289373533726"><ele>255.0</ele><time>2026-04-12T12:16:54Z</time></trkpt><trkpt lat="43.335099862129645" lon="11.880057173128478"><ele>255.0</ele><time>2026-04-12T12:16:55Z</time></trkpt><trkpt lat="43.33510478561567" lon="11.879807939178995"><ele>255.0</ele><time>2026-04-12T12:16:56Z</time></trkpt><trkpt lat="43.33510434617228" lon="11.879545927137185"><ele>255.0</ele><time>2026-04-12T12:16:57Z</time></trkpt><trkpt lat="43.33510214989792" lon="11.879270371906896"><ele>255.0</ele><time>2026-04-12T12:16:58Z</time></trkpt><trkpt lat="43.335097452321" lon="11.879020340595796"><ele>255.0</ele><time>2026-04-12T12:16:59Z</time></trkpt><trkpt lat="43.335090596589616" lon="11.878755656638406"><ele>255.0</ele><time>2026-04-12T12:17:00Z</time></trkpt><trkpt lat="43.33508071793502" lon="11.878475388137698"><ele>255.0</ele><time>2026-04-12T12:17:01Z</time></trkpt><trkpt lat="43.33507585574775" lon="11.878178449130633"><ele>255.0</ele><time>2026-04-12T12:17:02Z</time></trkpt><trkpt lat="43.335066821702355" lon="11.87786822343031"><ele>254.5</ele><time>2026-04-12T12:17:03Z</time></trkpt><trkpt lat="43.33506280070753" lon="11.877550251457365"><ele>254.0</ele><time>2026-04-12T12:17:04Z</time></trkpt><trkpt lat="43.33505684422282" lon="11.877229289017762"><ele>254.0</ele><time>2026-04-12T12:17:05Z</time></trkpt><trkpt lat="43.335050511956254" lon="11.876896377455981"><ele>254.0</ele><time>2026-04-12T12:17:06Z</time></trkpt><trkpt lat="43.335043748231" lon="11.876563244025196"><ele>254.5</ele><time>2026-04-12T12:17:07Z</time></trkpt><trkpt lat="43.335036683413904" lon="11.876233924202184"><ele>255.0</ele><time>2026-04-12T12:17:08Z</time></trkpt><trkpt lat="43.33502865147405" lon="11.875912197432152"><ele>255.0</ele><time>2026-04-12T12:17:09Z</time></trkpt><trkpt lat="43.335026511353526" lon="11.87559241041237"><ele>255.0</ele><time>2026-04-12T12:17:10Z</time></trkpt><trkpt lat="43.33502595423036" lon="11.87527630005495"><ele>254.0</ele><time>2026-04-12T12:17:11Z</time></trkpt><trkpt lat="43.33503768620185" lon="11.874960230736496"><ele>253.0</ele><time>2026-04-12T12:17:12Z</time></trkpt><trkpt lat="43.335065500802756" lon="11.874648849635182"><ele>253.0</ele><time>2026-04-12T12:17:13Z</time></trkpt><trkpt lat="43.33511777631287" lon="11.874341668347462"><ele>253.0</ele><time>2026-04-12T12:17:14Z</time></trkpt><trkpt lat="43.33513790087372" lon="11.874023065802032"><ele>253.0</ele><time>2026-04-12T12:17:15Z</time></trkpt><trkpt lat="43.33517555094952" lon="11.873704252424634"><ele>253.0</ele><time>2026-04-12T12:17:16Z</time></trkpt><trkpt lat="43.33521428323957" lon="11.873397988616098"><ele>253.33333333333331</ele><time>2026-04-12T12:17:17Z</time></trkpt><trkpt lat="43.33525018066638" lon="11.873113658144064"><ele>253.66666666666669</ele><time>2026-04-12T12:17:18Z</time></trkpt><trkpt lat="43.33527243591924" lon="11.872825443401673"><ele>254.0</ele><time>2026-04-12T12:17:19Z</time></trkpt><trkpt lat="43.335261777251844" lon="11.872532719955949"><ele>254.66666666666669</ele><time>2026-04-12T12:17:20Z</time></trkpt><trkpt lat="43.33522283197845" lon="11.872238553465978"><ele>255.33333333333331</ele><time>2026-04-12T12:17:21Z</time></trkpt><trkpt lat="43.335160111491604" lon="11.871940778663909"><ele>256.0</ele><time>2026-04-12T12:17:22Z</time></trkpt><trkpt lat="43.33508474611986" lon="11.871640281037639"><ele>256.0</ele><time>2026-04-12T12:17:23Z</time></trkpt><trkpt lat="43.33500865834568" lon="11.871337580923047"><ele>256.0</ele><time>2026-04-12T12:17:24Z</time></trkpt><trkpt lat="43.334933725199164" lon="11.871036064869827"><ele>255.5</ele><time>2026-04-12T12:17:25Z</time></trkpt><trkpt lat="43.334851849315015" lon="11.870740056067618"><ele>255.0</ele><time>2026-04-12T12:17:26Z</time></trkpt><trkpt lat="43.33475893864308" lon="11.870446783591587"><ele>254.5</ele><time>2026-04-12T12:17:27Z</time></trkpt><trkpt lat="43.33465485593928" lon="11.87015521428243"><ele>254.0</ele><time>2026-04-12T12:17:28Z</time></trkpt><trkpt lat="43.33454973630498" lon="11.869865387116985"><ele>255.5</ele><time>2026-04-12T12:17:29Z</time></trkpt><trkpt lat="43.334445409439326" lon="11.86957499017327"><ele>257.0</ele><time>2026-04-12T12:17:30Z</time></trkpt><trkpt lat="43.334343206019376" lon="11.869288395008606"><ele>256.5</ele><time>2026-04-12T12:17:31Z</time></trkpt><trkpt lat="43.33423713647718" lon="11.86899686006558"><ele>256.0</ele><time>2026-04-12T12:17:32Z</time></trkpt><trkpt lat="43.33413225800242" lon="11.868702722211786"><ele>256.0</ele><time>2026-04-12T12:17:33Z</time></trkpt><trkpt lat="43.3340261039417" lon="11.868405328814058"><ele>256.0</ele><time>2026-04-12T12:17:34Z</time></trkpt><trkpt lat="43.33392199629214" lon="11.868112173358236"><ele>257.0</ele><time>2026-04-12T12:17:35Z</time></trkpt><trkpt lat="43.33382155776417" lon="11.867823743667559"><ele>258.0</ele><time>2026-04-12T12:17:36Z</time></trkpt><trkpt lat="43.333716694670244" lon="11.867534041195904"><ele>258.5</ele><time>2026-04-12T12:17:37Z</time></trkpt><trkpt lat="43.33360950513301" lon="11.8672449755043"><ele>259.0</ele><time>2026-04-12T12:17:38Z</time></trkpt><trkpt lat="43.33350177797535" lon="11.866958615315715"><ele>259.5</ele><time>2026-04-12T12:17:39Z</time></trkpt><trkpt lat="43.33339483897387" lon="11.86666653453279"><ele>260.0</ele><time>2026-04-12T12:17:40Z</time></trkpt><trkpt lat="43.33328774597885" lon="11.866370883643706"><ele>260.0</ele><time>2026-04-12T12:17:41Z</time></trkpt><trkpt lat="43.33317942994765" lon="11.86607306279898"><ele>260.0</ele><time>2026-04-12T12:17:42Z</time></trkpt><trkpt lat="43.33307260091051" lon="11.865779945097842"><ele>259.5</ele><time>2026-04-12T12:17:43Z</time></trkpt><trkpt lat="43.33296809442071" lon="11.865484201192997"><ele>259.0</ele><time>2026-04-12T12:17:44Z</time></trkpt><trkpt lat="43.33286225295909" lon="11.86518333909293"><ele>259.0</ele><time>2026-04-12T12:17:45Z</time></trkpt><trkpt lat="43.332754379193666" lon="11.864885568431818"><ele>259.0</ele><time>2026-04-12T12:17:46Z</time></trkpt><trkpt lat="43.3326484453475" lon="11.864592490580948"><ele>259.0</ele><time>2026-04-12T12:17:47Z</time></trkpt><trkpt lat="43.33253832170473" lon="11.864300316754456"><ele>259.0</ele><time>2026-04-12T12:17:48Z</time></trkpt><trkpt lat="43.3324282466847" lon="11.86400646044389"><ele>259.5</ele><time>2026-04-12T12:17:49Z</time></trkpt><trkpt lat="43.33231745379952" lon="11.863717158737272"><ele>260.0</ele><time>2026-04-12T12:17:50Z</time></trkpt><trkpt lat="43.33220116579727" lon="11.863421095642357"><ele>260.0</ele><time>2026-04-12T12:17:51Z</time></trkpt><trkpt lat="43.33209226264414" lon="11.863132179908613"><ele>260.0</ele><time>2026-04-12T12:17:52Z</time></trkpt><trkpt lat="43.33197650408373" lon="11.862832845726684"><ele>260.5</ele><time>2026-04-12T12:17:53Z</time></trkpt><trkpt lat="43.331862540450345" lon="11.862536481757925"><ele>261.0</ele><time>2026-04-12T12:17:54Z</time></trkpt><trkpt lat="43.33174648024294" lon="11.86224007744996"><ele>261.0</ele><time>2026-04-12T12:17:55Z</time></trkpt><trkpt lat="43.33163033943807" lon="11.861946787427755"><ele>261.0</ele><time>2026-04-12T12:17:56Z</time></trkpt><trkpt lat="43.33151461753129" lon="11.861653536518164"><ele>260.5</ele><time>2026-04-12T12:17:57Z</time></trkpt><trkpt lat="43.331401100198896" lon="11.861362173303046"><ele>260.0</ele><time>2026-04-12T12:17:58Z</time></trkpt><trkpt lat="43.33128443967559" lon="11.861063205987149"><ele>260.5</ele><time>2026-04-12T12:17:59Z</time></trkpt><trkpt lat="43.3311675303631" lon="11.860765931490528"><ele>261.0</ele><time>2026-04-12T12:18:00Z</time></trkpt><trkpt lat="43.33105679749453" lon="11.860473374274486"><ele>261.0</ele><time>2026-04-12T12:18:01Z</time></trkpt><trkpt lat="43.33094177583075" lon="11.860181211437888"><ele>261.0</ele><time>2026-04-12T12:18:02Z</time></trkpt><trkpt lat="43.330827849251136" lon="11.859883788153855"><ele>261.0</ele><time>2026-04-12T12:18:03Z</time></trkpt><trkpt lat="43.33071043192903" lon="11.85958769544818"><ele>261.0</ele><time>2026-04-12T12:18:04Z</time></trkpt><trkpt lat="43.33059648473886" lon="11.859293946118635"><ele>261.5</ele><time>2026-04-12T12:18:05Z</time></trkpt><trkpt lat="43.330486191556076" lon="11.85899899859753"><ele>262.0</ele><time>2026-04-12T12:18:06Z</time></trkpt><trkpt lat="43.330379815644676" lon="11.858707775458917"><ele>262.0</ele><time>2026-04-12T12:18:07Z</time></trkpt><trkpt lat="43.330268881765235" lon="11.8584088870235"><ele>262.0</ele><time>2026-04-12T12:18:08Z</time></trkpt><trkpt lat="43.33015481077224" lon="11.858114557488104"><ele>262.0</ele><time>2026-04-12T12:18:09Z</time></trkpt><trkpt lat="43.33004389510382" lon="11.85782694613257"><ele>262.0</ele><time>2026-04-12T12:18:10Z</time></trkpt><trkpt lat="43.329927659292885" lon="11.857530823884556"><ele>263.5</ele><time>2026-04-12T12:18:11Z</time></trkpt><trkpt lat="43.32981958778503" lon="11.857243295671115"><ele>265.0</ele><time>2026-04-12T12:18:12Z</time></trkpt><trkpt lat="43.329709539721684" lon="11.856950598245538"><ele>265.0</ele><time>2026-04-12T12:18:13Z</time></trkpt><trkpt lat="43.32959476077767" lon="11.856660293556441"><ele>265.0</ele><time>2026-04-12T12:18:14Z</time></trkpt><trkpt lat="43.3294823537079" lon="11.85637013936046"><ele>265.0</ele><time>2026-04-12T12:18:15Z</time></trkpt><trkpt lat="43.329368086742335" lon="11.856076820307754"><ele>265.0</ele><time>2026-04-12T12:18:16Z</time></trkpt><trkpt lat="43.329257962982794" lon="11.855775051429145"><ele>265.5</ele><time>2026-04-12T12:18:17Z</time></trkpt><trkpt lat="43.32914353353224" lon="11.855470314829308"><ele>266.0</ele><time>2026-04-12T12:18:18Z</time></trkpt><trkpt lat="43.32903089670461" lon="11.855160996728463"><ele>266.5</ele><time>2026-04-12T12:18:19Z</time></trkpt><trkpt lat="43.32891611845193" lon="11.854856291908657"><ele>267.0</ele><time>2026-04-12T12:18:20Z</time></trkpt><trkpt lat="43.32880017325892" lon="11.854555088910567"><ele>266.0</ele><time>2026-04-12T12:18:21Z</time></trkpt><trkpt lat="43.32868267132551" lon="11.854253412295767"><ele>265.0</ele><time>2026-04-12T12:18:22Z</time></trkpt><trkpt lat="43.32856737264419" lon="11.853952042440108"><ele>265.0</ele><time>2026-04-12T12:18:23Z</time></trkpt><trkpt lat="43.32845387699684" lon="11.853644794815914"><ele>265.0</ele><time>2026-04-12T12:18:24Z</time></trkpt><trkpt lat="43.328337659620374" lon="11.85333691019543"><ele>265.0</ele><time>2026-04-12T12:18:25Z</time></trkpt><trkpt lat="43.32822592928192" lon="11.853026575205437"><ele>265.0</ele><time>2026-04-12T12:18:26Z</time></trkpt><trkpt lat="43.328112318149365" lon="11.85271880333466"><ele>265.5</ele><time>2026-04-12T12:18:27Z</time></trkpt><trkpt lat="43.32800064237914" lon="11.852411950442791"><ele>266.0</ele><time>2026-04-12T12:18:28Z</time></trkpt><trkpt lat="43.32789309355692" lon="11.852104105833483"><ele>266.0</ele><time>2026-04-12T12:18:29Z</time></trkpt><trkpt lat="43.3277872963066" lon="11.851799993184503"><ele>266.0</ele><time>2026-04-12T12:18:30Z</time></trkpt><trkpt lat="43.32768660683905" lon="11.851496391058756"><ele>266.0</ele><time>2026-04-12T12:18:31Z</time></trkpt><trkpt lat="43.32758492656186" lon="11.851194858106126"><ele>266.0</ele><time>2026-04-12T12:18:32Z</time></trkpt><trkpt lat="43.327482895446245" lon="11.850894314124897"><ele>266.5</ele><time>2026-04-12T12:18:33Z</time></trkpt><trkpt lat="43.32737926072216" lon="11.850592539276986"><ele>267.0</ele><time>2026-04-12T12:18:34Z</time></trkpt><trkpt lat="43.32728048565479" lon="11.850288787482134"><ele>267.0</ele><time>2026-04-12T12:18:35Z</time></trkpt><trkpt lat="43.327181176462126" lon="11.849991562866583"><ele>267.0</ele><time>2026-04-12T12:18:36Z</time></trkpt><trkpt lat="43.327069484326735" lon="11.849702027303636"><ele>267.0</ele><time>2026-04-12T12:18:37Z</time></trkpt><trkpt lat="43.326932215164064" lon="11.84944141035278"><ele>267.0</ele><time>2026-04-12T12:18:38Z</time></trkpt><trkpt lat="43.326756718025855" lon="11.849220922789012"><ele>266.5</ele><time>2026-04-12T12:18:39Z</time></trkpt><trkpt lat="43.326560219021346" lon="11.849043247919624"><ele>266.0</ele><time>2026-04-12T12:18:40Z</time></trkpt><trkpt lat="43.32633595737399" lon="11.84888367306948"><ele>266.0</ele><time>2026-04-12T12:18:41Z</time></trkpt><trkpt lat="43.32612222000989" lon="11.848708968880716"><ele>266.0</ele><time>2026-04-12T12:18:42Z</time></trkpt><trkpt lat="43.32589935161121" lon="11.848540406404782"><ele>262.5</ele><time>2026-04-12T12:18:43Z</time></trkpt><trkpt lat="43.32568748279246" lon="11.848365065248403"><ele>259.0</ele><time>2026-04-12T12:18:44Z</time></trkpt><trkpt lat="43.32548267564622" lon="11.84819251634588"><ele>259.0</ele><time>2026-04-12T12:18:45Z</time></trkpt><trkpt lat="43.32527973035485" lon="11.848011799197186"><ele>259.0</ele><time>2026-04-12T12:18:46Z</time></trkpt><trkpt lat="43.32507596959836" lon="11.847841167943875"><ele>259.0</ele><time>2026-04-12T12:18:47Z</time></trkpt><trkpt lat="43.324875124706345" lon="11.847673781726362"><ele>259.0</ele><time>2026-04-12T12:18:48Z</time></trkpt><trkpt lat="43.324672488462234" lon="11.847507177802772"><ele>253.5</ele><time>2026-04-12T12:18:49Z</time></trkpt><trkpt lat="43.324465862431175" lon="11.847341415476569"><ele>248.0</ele><time>2026-04-12T12:18:50Z</time></trkpt><trkpt lat="43.324261985281474" lon="11.847175706418781"><ele>248.0</ele><time>2026-04-12T12:18:51Z</time></trkpt><trkpt lat="43.32408052046844" lon="11.84699256814878"><ele>248.0</ele><time>2026-04-12T12:18:52Z</time></trkpt><trkpt lat="43.3239206593903" lon="11.846765595682562"><ele>246.5</ele><time>2026-04-12T12:18:53Z</time></trkpt><trkpt lat="43.323792747248234" lon="11.846498341755417"><ele>245.0</ele><time>2026-04-12T12:18:54Z</time></trkpt><trkpt lat="43.323690310202366" lon="11.846204453420041"><ele>243.5</ele><time>2026-04-12T12:18:55Z</time></trkpt><trkpt lat="43.32360608520979" lon="11.845895513843262"><ele>242.0</ele><time>2026-04-12T12:18:56Z</time></trkpt><trkpt lat="43.323524292488464" lon="11.845582607032117"><ele>242.0</ele><time>2026-04-12T12:18:57Z</time></trkpt><trkpt lat="43.32344156871605" lon="11.845267849547183"><ele>242.0</ele><time>2026-04-12T12:18:58Z</time></trkpt><trkpt lat="43.323358735866975" lon="11.844960326253698"><ele>241.5</ele><time>2026-04-12T12:18:59Z</time></trkpt><trkpt lat="43.32327561363343" lon="11.844651140363826"><ele>241.0</ele><time>2026-04-12T12:19:00Z</time></trkpt><trkpt lat="43.323188645171825" lon="11.84434619369488"><ele>241.5</ele><time>2026-04-12T12:19:01Z</time></trkpt><trkpt lat="43.32310454631115" lon="11.844028867327559"><ele>242.0</ele><time>2026-04-12T12:19:02Z</time></trkpt><trkpt lat="43.32302009502595" lon="11.843710884129749"><ele>241.0</ele><time>2026-04-12T12:19:03Z</time></trkpt><trkpt lat="43.32293590614776" lon="11.84340305267718"><ele>240.0</ele><time>2026-04-12T12:19:04Z</time></trkpt><trkpt lat="43.322851523655196" lon="11.843088107152395"><ele>240.0</ele><time>2026-04-12T12:19:05Z</time></trkpt><trkpt lat="43.322765106349834" lon="11.842770839236223"><ele>240.0</ele><time>2026-04-12T12:19:06Z</time></trkpt><trkpt lat="43.32267809049946" lon="11.842455345822255"><ele>240.5</ele><time>2026-04-12T12:19:07Z</time></trkpt><trkpt lat="43.322588976643445" lon="11.84214045111324"><ele>241.0</ele><time>2026-04-12T12:19:08Z</time></trkpt><trkpt lat="43.32250206539386" lon="11.841827877122748"><ele>241.5</ele><time>2026-04-12T12:19:09Z</time></trkpt><trkpt lat="43.322417312141646" lon="11.841511333500236"><ele>242.0</ele><time>2026-04-12T12:19:10Z</time></trkpt><trkpt lat="43.322329587245655" lon="11.841194639777541"><ele>242.0</ele><time>2026-04-12T12:19:11Z</time></trkpt><trkpt lat="43.32223708283317" lon="11.8408941347645"><ele>242.0</ele><time>2026-04-12T12:19:12Z</time></trkpt><trkpt lat="43.322128335522315" lon="11.840586930659786"><ele>241.5</ele><time>2026-04-12T12:19:13Z</time></trkpt><trkpt lat="43.322011217176374" lon="11.840289633089744"><ele>241.0</ele><time>2026-04-12T12:19:14Z</time></trkpt><trkpt lat="43.32188661012107" lon="11.839990752095291"><ele>240.5</ele><time>2026-04-12T12:19:15Z</time></trkpt><trkpt lat="43.32176451383617" lon="11.839689514549121"><ele>240.0</ele><time>2026-04-12T12:19:16Z</time></trkpt><trkpt lat="43.32164570344048" lon="11.839400489271824"><ele>240.0</ele><time>2026-04-12T12:19:17Z</time></trkpt><trkpt lat="43.32154087335342" lon="11.8391299739707"><ele>240.0</ele><time>2026-04-12T12:19:18Z</time></trkpt><trkpt lat="43.32144794259506" lon="11.838881324217086"><ele>240.0</ele><time>2026-04-12T12:19:19Z</time></trkpt><trkpt lat="43.32135258513185" lon="11.838649913118303"><ele>240.33333333333331</ele><time>2026-04-12T12:19:20Z</time></trkpt><trkpt lat="43.32126113009804" lon="11.838427001769295"><ele>240.66666666666666</ele><time>2026-04-12T12:19:21Z</time></trkpt><trkpt lat="43.321175217983814" lon="11.838213695561217"><ele>241.0</ele><time>2026-04-12T12:19:22Z</time></trkpt><trkpt lat="43.32109828277747" lon="11.838012709641992"><ele>241.0</ele><time>2026-04-12T12:19:23Z</time></trkpt><trkpt lat="43.32102511746748" lon="11.837829756290025"><ele>241.0</ele><time>2026-04-12T12:19:24Z</time></trkpt><trkpt lat="43.32095801510827" lon="11.837653234170697"><ele>241.0</ele><time>2026-04-12T12:19:25Z</time></trkpt><trkpt lat="43.320892890887556" lon="11.837486548734761"><ele>241.0</ele><time>2026-04-12T12:19:26Z</time></trkpt><trkpt lat="43.3208318340558" lon="11.83733358442154"><ele>241.20000000000002</ele><time>2026-04-12T12:19:27Z</time></trkpt><trkpt lat="43.320772702510325" lon="11.837198950055624"><ele>241.40000000000003</ele><time>2026-04-12T12:19:28Z</time></trkpt><trkpt lat="43.32071563130497" lon="11.837059653694293"><ele>241.6</ele><time>2026-04-12T12:19:29Z</time></trkpt><trkpt lat="43.320667348495334" lon="11.83693715994553"><ele>241.8</ele><time>2026-04-12T12:19:30Z</time></trkpt><trkpt lat="43.320624221944314" lon="11.83682746760164"><ele>242.0</ele><time>2026-04-12T12:19:31Z</time></trkpt><trkpt lat="43.32059000198814" lon="11.836741816680401"><ele>241.83333333333334</ele><time>2026-04-12T12:19:32Z</time></trkpt><trkpt lat="43.32054131475618" lon="11.836619027307256"><ele>241.66666666666669</ele><time>2026-04-12T12:19:34Z</time></trkpt><trkpt lat="43.32051073341921" lon="11.83653847889786"><ele>241.5</ele><time>2026-04-12T12:19:37Z</time></trkpt><trkpt lat="43.32047608641401" lon="11.836459503693812"><ele>241.33333333333331</ele><time>2026-04-12T12:20:08Z</time></trkpt><trkpt lat="43.32046506196222" lon="11.836369007170578"><ele>241.16666666666666</ele><time>2026-04-12T12:20:09Z</time></trkpt><trkpt lat="43.3204240620244" lon="11.836215699844415"><ele>241.0</ele><time>2026-04-12T12:20:11Z</time></trkpt><trkpt lat="43.32039510033747" lon="11.83610348569414"><ele>241.0</ele><time>2026-04-12T12:20:12Z</time></trkpt><trkpt lat="43.32036740910997" lon="11.835994584315394"><ele>241.00000000000003</ele><time>2026-04-12T12:20:13Z</time></trkpt><trkpt lat="43.32033626781489" lon="11.835871900160878"><ele>241.00000000000003</ele><time>2026-04-12T12:20:14Z</time></trkpt><trkpt lat="43.32029709519359" lon="11.835734673607314"><ele>241.0</ele><time>2026-04-12T12:20:15Z</time></trkpt><trkpt lat="43.32025610061579" lon="11.835599487731635"><ele>241.0</ele><time>2026-04-12T12:20:16Z</time></trkpt><trkpt lat="43.32019513187575" lon="11.835478568954738"><ele>241.0</ele><time>2026-04-12T12:20:17Z</time></trkpt><trkpt lat="43.32011786630055" lon="11.835329000217618"><ele>241.0</ele><time>2026-04-12T12:20:18Z</time></trkpt><trkpt lat="43.32001628033976" lon="11.835169719545263"><ele>241.0</ele><time>2026-04-12T12:20:19Z</time></trkpt><trkpt lat="43.31989768244621" lon="11.835002186459434"><ele>241.66666666666666</ele><time>2026-04-12T12:20:20Z</time></trkpt><trkpt lat="43.3197877349001" lon="11.834840727648606"><ele>242.33333333333331</ele><time>2026-04-12T12:20:21Z</time></trkpt><trkpt lat="43.31969096174349" lon="11.834690037191487"><ele>243.0</ele><time>2026-04-12T12:20:22Z</time></trkpt><trkpt lat="43.31958004535061" lon="11.834526414049401"><ele>243.0</ele><time>2026-04-12T12:20:23Z</time></trkpt><trkpt lat="43.319463940200585" lon="11.83435020229695"><ele>243.0</ele><time>2026-04-12T12:20:24Z</time></trkpt><trkpt lat="43.319347572496596" lon="11.834165918611983"><ele>243.0</ele><time>2026-04-12T12:20:25Z</time></trkpt><trkpt lat="43.319226775466625" lon="11.83396391395431"><ele>243.0</ele><time>2026-04-12T12:20:26Z</time></trkpt><trkpt lat="43.31910686437193" lon="11.833754381380773"><ele>243.0</ele><time>2026-04-12T12:20:27Z</time></trkpt><trkpt lat="43.318990072572355" lon="11.833535690482702"><ele>243.0</ele><time>2026-04-12T12:20:28Z</time></trkpt><trkpt lat="43.31887724101275" lon="11.833321439649314"><ele>243.0</ele><time>2026-04-12T12:20:29Z</time></trkpt><trkpt lat="43.318760914497645" lon="11.833095519659254"><ele>243.0</ele><time>2026-04-12T12:20:30Z</time></trkpt><trkpt lat="43.31864148830255" lon="11.832864484217048"><ele>243.0</ele><time>2026-04-12T12:20:31Z</time></trkpt><trkpt lat="43.31852823561471" lon="11.832637292949835"><ele>243.0</ele><time>2026-04-12T12:20:32Z</time></trkpt><trkpt lat="43.31840998118436" lon="11.832406167049683"><ele>243.0</ele><time>2026-04-12T12:20:33Z</time></trkpt><trkpt lat="43.318307980970744" lon="11.832196472039259"><ele>243.0</ele><time>2026-04-12T12:20:34Z</time></trkpt><trkpt lat="43.31824393560669" lon="11.83197001850091"><ele>243.0</ele><time>2026-04-12T12:20:35Z</time></trkpt><trkpt lat="43.31818097253171" lon="11.83172540215895"><ele>243.0</ele><time>2026-04-12T12:20:36Z</time></trkpt><trkpt lat="43.31812870064573" lon="11.831463110843234"><ele>243.0</ele><time>2026-04-12T12:20:37Z</time></trkpt><trkpt lat="43.31813304937956" lon="11.831176545394788"><ele>242.66666666666669</ele><time>2026-04-12T12:20:38Z</time></trkpt><trkpt lat="43.318151679428524" lon="11.830883453309895"><ele>242.33333333333334</ele><time>2026-04-12T12:20:39Z</time></trkpt><trkpt lat="43.318176637452545" lon="11.830577190259852"><ele>242.0</ele><time>2026-04-12T12:20:40Z</time></trkpt><trkpt lat="43.31819000143016" lon="11.830259296947164"><ele>243.5</ele><time>2026-04-12T12:20:41Z</time></trkpt><trkpt lat="43.31822990858052" lon="11.829928792289902"><ele>245.0</ele><time>2026-04-12T12:20:42Z</time></trkpt><trkpt lat="43.31826548670567" lon="11.829592900224435"><ele>245.0</ele><time>2026-04-12T12:20:43Z</time></trkpt><trkpt lat="43.31830164270092" lon="11.829246640551421"><ele>245.0</ele><time>2026-04-12T12:20:44Z</time></trkpt><trkpt lat="43.31833272158923" lon="11.828897893209442"><ele>245.0</ele><time>2026-04-12T12:20:45Z</time></trkpt><trkpt lat="43.318365008284026" lon="11.828547391717908"><ele>245.0</ele><time>2026-04-12T12:20:46Z</time></trkpt><trkpt lat="43.318398160780404" lon="11.82819330383263"><ele>245.0</ele><time>2026-04-12T12:20:47Z</time></trkpt><trkpt lat="43.318431770354806" lon="11.827842112820662"><ele>245.0</ele><time>2026-04-12T12:20:48Z</time></trkpt><trkpt lat="43.31846417238123" lon="11.827491992840418"><ele>245.0</ele><time>2026-04-12T12:20:49Z</time></trkpt><trkpt lat="43.318495541264554" lon="11.827136959950026"><ele>245.0</ele><time>2026-04-12T12:20:50Z</time></trkpt><trkpt lat="43.31852809725199" lon="11.826784343480018"><ele>244.5</ele><time>2026-04-12T12:20:51Z</time></trkpt><trkpt lat="43.318562218563024" lon="11.826432880763994"><ele>244.0</ele><time>2026-04-12T12:20:52Z</time></trkpt><trkpt lat="43.31859579797323" lon="11.826084471907862"><ele>244.0</ele><time>2026-04-12T12:20:53Z</time></trkpt><trkpt lat="43.3186267720413" lon="11.825745281272185"><ele>244.0</ele><time>2026-04-12T12:20:54Z</time></trkpt><trkpt lat="43.318657706393694" lon="11.825418356589235"><ele>243.5</ele><time>2026-04-12T12:20:55Z</time></trkpt><trkpt lat="43.318691020839275" lon="11.825087060809128"><ele>243.0</ele><time>2026-04-12T12:20:56Z</time></trkpt><trkpt lat="43.3187270117629" lon="11.824748090872898"><ele>243.0</ele><time>2026-04-12T12:20:57Z</time></trkpt><trkpt lat="43.31876187161368" lon="11.824407163223873"><ele>243.0</ele><time>2026-04-12T12:20:58Z</time></trkpt><trkpt lat="43.31879595188658" lon="11.824063590074852"><ele>243.5</ele><time>2026-04-12T12:20:59Z</time></trkpt><trkpt lat="43.3188306209489" lon="11.823714757614484"><ele>244.0</ele><time>2026-04-12T12:21:00Z</time></trkpt><trkpt lat="43.318862590559775" lon="11.823368015429441"><ele>244.0</ele><time>2026-04-12T12:21:01Z</time></trkpt><trkpt lat="43.31889549010203" lon="11.823017156035013"><ele>244.0</ele><time>2026-04-12T12:21:02Z</time></trkpt><trkpt lat="43.31892829990932" lon="11.822666558039586"><ele>244.5</ele><time>2026-04-12T12:21:03Z</time></trkpt><trkpt lat="43.31896239402176" lon="11.82231452287805"><ele>245.0</ele><time>2026-04-12T12:21:04Z</time></trkpt><trkpt lat="43.31899824002756" lon="11.821961398277"><ele>244.5</ele><time>2026-04-12T12:21:05Z</time></trkpt><trkpt lat="43.31903390466693" lon="11.821607621704525"><ele>244.0</ele><time>2026-04-12T12:21:06Z</time></trkpt><trkpt lat="43.3190700837585" lon="11.821249459256235"><ele>245.0</ele><time>2026-04-12T12:21:07Z</time></trkpt><trkpt lat="43.319102434358065" lon="11.820894471756839"><ele>246.0</ele><time>2026-04-12T12:21:08Z</time></trkpt><trkpt lat="43.3191333182104" lon="11.820535479096902"><ele>246.0</ele><time>2026-04-12T12:21:09Z</time></trkpt><trkpt lat="43.31916542110641" lon="11.820180539941585"><ele>246.0</ele><time>2026-04-12T12:21:10Z</time></trkpt><trkpt lat="43.31919669568366" lon="11.819821376743882"><ele>246.0</ele><time>2026-04-12T12:21:11Z</time></trkpt><trkpt lat="43.3192307389974" lon="11.81946225229588"><ele>246.0</ele><time>2026-04-12T12:21:12Z</time></trkpt><trkpt lat="43.31926423821094" lon="11.81910594125955"><ele>246.0</ele><time>2026-04-12T12:21:13Z</time></trkpt><trkpt lat="43.31929883381003" lon="11.81874612311147"><ele>246.0</ele><time>2026-04-12T12:21:14Z</time></trkpt><trkpt lat="43.319333344523805" lon="11.818383130733707"><ele>245.5</ele><time>2026-04-12T12:21:15Z</time></trkpt><trkpt lat="43.31938080503954" lon="11.818008474444262"><ele>245.0</ele><time>2026-04-12T12:21:16Z</time></trkpt><trkpt lat="43.319415589649914" lon="11.81761675275288"><ele>245.0</ele><time>2026-04-12T12:21:17Z</time></trkpt><trkpt lat="43.3194670083837" lon="11.81727004906424"><ele>245.0</ele><time>2026-04-12T12:21:18Z</time></trkpt><trkpt lat="43.31953943636776" lon="11.816911545769079"><ele>245.33333333333334</ele><time>2026-04-12T12:21:19Z</time></trkpt><trkpt lat="43.31961524159421" lon="11.816543041546124"><ele>245.66666666666669</ele><time>2026-04-12T12:21:20Z</time></trkpt><trkpt lat="43.31957006920975" lon="11.816344647215917"><ele>246.0</ele><time>2026-04-12T12:21:21Z</time></trkpt><trkpt lat="43.31959655867294" lon="11.816077170429917"><ele>245.66666666666669</ele><time>2026-04-12T12:21:22Z</time></trkpt><trkpt lat="43.31962094599317" lon="11.815828217066176"><ele>245.33333333333334</ele><time>2026-04-12T12:21:23Z</time></trkpt><trkpt lat="43.31963288423875" lon="11.815592117104998"><ele>245.0</ele><time>2026-04-12T12:21:24Z</time></trkpt><trkpt lat="43.319610401149376" lon="11.81537300878311"><ele>245.0</ele><time>2026-04-12T12:21:25Z</time></trkpt><trkpt lat="43.31955152121578" lon="11.815162824056255"><ele>245.0</ele><time>2026-04-12T12:21:26Z</time></trkpt><trkpt lat="43.31946766289419" lon="11.814940710040009"><ele>245.0</ele><time>2026-04-12T12:21:27Z</time></trkpt><trkpt lat="43.319356176297234" lon="11.814717964979545"><ele>245.0</ele><time>2026-04-12T12:21:28Z</time></trkpt><trkpt lat="43.319214051749775" lon="11.814507055660354"><ele>245.0</ele><time>2026-04-12T12:21:29Z</time></trkpt><trkpt lat="43.31906205646485" lon="11.814317497012414"><ele>245.0</ele><time>2026-04-12T12:21:30Z</time></trkpt><trkpt lat="43.31892916335586" lon="11.814147827284913"><ele>245.33333333333334</ele><time>2026-04-12T12:21:31Z</time></trkpt><trkpt lat="43.31880902749725" lon="11.813982701961532"><ele>245.66666666666669</ele><time>2026-04-12T12:21:32Z</time></trkpt><trkpt lat="43.318692056451354" lon="11.813819053263504"><ele>246.0</ele><time>2026-04-12T12:21:33Z</time></trkpt><trkpt lat="43.31858249153255" lon="11.813674800242266"><ele>246.0</ele><time>2026-04-12T12:21:34Z</time></trkpt><trkpt lat="43.31847836663499" lon="11.813535478658935"><ele>246.0</ele><time>2026-04-12T12:21:35Z</time></trkpt><trkpt lat="43.318383419393015" lon="11.813397865478215"><ele>246.0</ele><time>2026-04-12T12:21:36Z</time></trkpt><trkpt lat="43.31830285251091" lon="11.81328248384"><ele>246.0</ele><time>2026-04-12T12:21:37Z</time></trkpt><trkpt lat="43.3182344704147" lon="11.813183873327013"><ele>246.16666666666666</ele><time>2026-04-12T12:21:38Z</time></trkpt><trkpt lat="43.31817482578148" lon="11.813093924102272"><ele>246.33333333333331</ele><time>2026-04-12T12:21:39Z</time></trkpt><trkpt lat="43.31811764554861" lon="11.812999688455"><ele>246.5</ele><time>2026-04-12T12:21:40Z</time></trkpt><trkpt lat="43.31807040064798" lon="11.812903939309962"><ele>246.66666666666666</ele><time>2026-04-12T12:21:41Z</time></trkpt><trkpt lat="43.318040400797756" lon="11.812797630162827"><ele>246.83333333333331</ele><time>2026-04-12T12:21:42Z</time></trkpt><trkpt lat="43.31804298773513" lon="11.812667474138303"><ele>247.0</ele><time>2026-04-12T12:21:43Z</time></trkpt><trkpt lat="43.3180143589754" lon="11.812547929874674"><ele>247.39999999999998</ele><time>2026-04-12T12:21:44Z</time></trkpt><trkpt lat="43.31795384404822" lon="11.81245965981579"><ele>247.79999999999998</ele><time>2026-04-12T12:21:45Z</time></trkpt><trkpt lat="43.317864858241684" lon="11.81241128985269"><ele>248.2</ele><time>2026-04-12T12:21:46Z</time></trkpt><trkpt lat="43.31775214539509" lon="11.812376276765225"><ele>248.6</ele><time>2026-04-12T12:21:47Z</time></trkpt><trkpt lat="43.317632409041614" lon="11.812306566788621"><ele>249.0</ele><time>2026-04-12T12:21:48Z</time></trkpt><trkpt lat="43.3175244822935" lon="11.812185799253013"><ele>249.0</ele><time>2026-04-12T12:21:49Z</time></trkpt><trkpt lat="43.31741678245166" lon="11.812025548573159"><ele>249.0</ele><time>2026-04-12T12:21:50Z</time></trkpt><trkpt lat="43.31730400883435" lon="11.811846848087567"><ele>249.0</ele><time>2026-04-12T12:21:51Z</time></trkpt><trkpt lat="43.31718869272388" lon="11.81167455003996"><ele>249.33333333333331</ele><time>2026-04-12T12:21:52Z</time></trkpt><trkpt lat="43.31706134883858" lon="11.81148622855439"><ele>249.66666666666666</ele><time>2026-04-12T12:21:53Z</time></trkpt><trkpt lat="43.3169282739244" lon="11.811295012716908"><ele>250.0</ele><time>2026-04-12T12:21:54Z</time></trkpt><trkpt lat="43.316795097418684" lon="11.811104895835749"><ele>249.75</ele><time>2026-04-12T12:21:55Z</time></trkpt><trkpt lat="43.31667746460934" lon="11.810933038498872"><ele>249.5</ele><time>2026-04-12T12:21:56Z</time></trkpt><trkpt lat="43.3165925249957" lon="11.810803476613371"><ele>249.25</ele><time>2026-04-12T12:21:57Z</time></trkpt><trkpt lat="43.31650865979014" lon="11.810691787606133"><ele>249.0</ele><time>2026-04-12T12:21:58Z</time></trkpt><trkpt lat="43.31642875911327" lon="11.810588588321167"><ele>249.25</ele><time>2026-04-12T12:21:59Z</time></trkpt><trkpt lat="43.31636060241232" lon="11.810492344538455"><ele>249.5</ele><time>2026-04-12T12:22:00Z</time></trkpt><trkpt lat="43.31628567684375" lon="11.810379915395373"><ele>249.75</ele><time>2026-04-12T12:22:01Z</time></trkpt><trkpt lat="43.31619537570259" lon="11.810249301506882"><ele>250.0</ele><time>2026-04-12T12:22:02Z</time></trkpt><trkpt lat="43.31609077265714" lon="11.810106161157451"><ele>250.66666666666666</ele><time>2026-04-12T12:22:03Z</time></trkpt><trkpt lat="43.31597854470014" lon="11.809953344537478"><ele>251.33333333333331</ele><time>2026-04-12T12:22:04Z</time></trkpt><trkpt lat="43.31587097990433" lon="11.809807198909612"><ele>252.0</ele><time>2026-04-12T12:22:05Z</time></trkpt><trkpt lat="43.31577433117818" lon="11.809661135668772"><ele>252.0</ele><time>2026-04-12T12:22:06Z</time></trkpt><trkpt lat="43.31568163646092" lon="11.80951369979988"><ele>252.0</ele><time>2026-04-12T12:22:07Z</time></trkpt><trkpt lat="43.31559599524159" lon="11.809383606693727"><ele>252.0</ele><time>2026-04-12T12:22:08Z</time></trkpt><trkpt lat="43.315518630103256" lon="11.809261390487581"><ele>252.0</ele><time>2026-04-12T12:22:09Z</time></trkpt><trkpt lat="43.31545648342106" lon="11.809153720462875"><ele>253.0</ele><time>2026-04-12T12:22:10Z</time></trkpt><trkpt lat="43.31538358111389" lon="11.809034932392294"><ele>254.0</ele><time>2026-04-12T12:22:11Z</time></trkpt><trkpt lat="43.31532281676987" lon="11.80892566455734"><ele>255.0</ele><time>2026-04-12T12:22:12Z</time></trkpt><trkpt lat="43.315257813045534" lon="11.808813287190981"><ele>256.0</ele><time>2026-04-12T12:22:13Z</time></trkpt><trkpt lat="43.315179486653776" lon="11.808687435666455"><ele>257.0</ele><time>2026-04-12T12:22:14Z</time></trkpt><trkpt lat="43.31509914508449" lon="11.80854575776492"><ele>257.6</ele><time>2026-04-12T12:22:15Z</time></trkpt><trkpt lat="43.315020010910985" lon="11.808419869869526"><ele>258.2</ele><time>2026-04-12T12:22:16Z</time></trkpt><trkpt lat="43.314954466034315" lon="11.80831352828454"><ele>258.8</ele><time>2026-04-12T12:22:17Z</time></trkpt><trkpt lat="43.314904375136194" lon="11.808206294387926"><ele>259.4</ele><time>2026-04-12T12:22:18Z</time></trkpt><trkpt lat="43.31488172696393" lon="11.808070377975959"><ele>260.0</ele><time>2026-04-12T12:22:19Z</time></trkpt><trkpt lat="43.31482529436408" lon="11.80799546720754"><ele>260.0</ele><time>2026-04-12T12:22:20Z</time></trkpt><trkpt lat="43.31495988194602" lon="11.807745266063648"><ele>260.0</ele><time>2026-04-12T12:22:21Z</time></trkpt><trkpt lat="43.31505080394905" lon="11.807564237898351"><ele>260.0</ele><time>2026-04-12T12:22:22Z</time></trkpt><trkpt lat="43.315164281255576" lon="11.807348904034603"><ele>261.0</ele><time>2026-04-12T12:22:23Z</time></trkpt><trkpt lat="43.31528950424344" lon="11.807104608858916"><ele>262.0</ele><time>2026-04-12T12:22:24Z</time></trkpt><trkpt lat="43.31541676790971" lon="11.80685122013974"><ele>263.0</ele><time>2026-04-12T12:22:25Z</time></trkpt><trkpt lat="43.31555697341929" lon="11.806637688308783"><ele>266.0</ele><time>2026-04-12T12:22:26Z</time></trkpt><trkpt lat="43.31571240416283" lon="11.806386214669319"><ele>269.0</ele><time>2026-04-12T12:22:27Z</time></trkpt><trkpt lat="43.31584353554364" lon="11.806147622424975"><ele>270.5</ele><time>2026-04-12T12:22:28Z</time></trkpt><trkpt lat="43.31598236179393" lon="11.80587798667082"><ele>272.0</ele><time>2026-04-12T12:22:29Z</time></trkpt><trkpt lat="43.31611820243625" lon="11.805629870436718"><ele>272.0</ele><time>2026-04-12T12:22:30Z</time></trkpt><trkpt lat="43.31626134427662" lon="11.805369853391001"><ele>272.0</ele><time>2026-04-12T12:22:31Z</time></trkpt><trkpt lat="43.31640194222322" lon="11.805105152000378"><ele>273.5</ele><time>2026-04-12T12:22:32Z</time></trkpt><trkpt lat="43.31653939892248" lon="11.804841649764827"><ele>275.0</ele><time>2026-04-12T12:22:33Z</time></trkpt><trkpt lat="43.316682655689505" lon="11.80457735229127"><ele>276.0</ele><time>2026-04-12T12:22:34Z</time></trkpt><trkpt lat="43.31681694506049" lon="11.804322301237425"><ele>277.0</ele><time>2026-04-12T12:22:35Z</time></trkpt><trkpt lat="43.31695189752149" lon="11.804072342751354"><ele>277.0</ele><time>2026-04-12T12:22:36Z</time></trkpt><trkpt lat="43.317080432572375" lon="11.803828845432228"><ele>277.0</ele><time>2026-04-12T12:22:37Z</time></trkpt><trkpt lat="43.3172056942367" lon="11.803591158553258"><ele>277.0</ele><time>2026-04-12T12:22:38Z</time></trkpt><trkpt lat="43.31733337228009" lon="11.803352863319096"><ele>278.0</ele><time>2026-04-12T12:22:39Z</time></trkpt><trkpt lat="43.317461348036815" lon="11.803118832969503"><ele>279.0</ele><time>2026-04-12T12:22:40Z</time></trkpt><trkpt lat="43.31758651754783" lon="11.80288593735171"><ele>280.0</ele><time>2026-04-12T12:22:41Z</time></trkpt><trkpt lat="43.31771293792226" lon="11.80264844076801"><ele>279.66666666666663</ele><time>2026-04-12T12:22:42Z</time></trkpt><trkpt lat="43.31784033276848" lon="11.802410072098237"><ele>279.3333333333333</ele><time>2026-04-12T12:22:43Z</time></trkpt><trkpt lat="43.31797129760287" lon="11.802172906142138"><ele>279.0</ele><time>2026-04-12T12:22:44Z</time></trkpt><trkpt lat="43.31809233877368" lon="11.80192330497167"><ele>280.6666666666667</ele><time>2026-04-12T12:22:45Z</time></trkpt><trkpt lat="43.31821312841789" lon="11.801667962037675"><ele>282.33333333333337</ele><time>2026-04-12T12:22:46Z</time></trkpt><trkpt lat="43.31833481502668" lon="11.801413334190377"><ele>284.0</ele><time>2026-04-12T12:22:47Z</time></trkpt><trkpt lat="43.31845712262157" lon="11.801157753594953"><ele>285.0</ele><time>2026-04-12T12:22:48Z</time></trkpt><trkpt lat="43.318579832151094" lon="11.80089772563005"><ele>286.0</ele><time>2026-04-12T12:22:49Z</time></trkpt><trkpt lat="43.318705690207636" lon="11.800633504036314"><ele>286.0</ele><time>2026-04-12T12:22:50Z</time></trkpt><trkpt lat="43.318829931433314" lon="11.800375678520837"><ele>286.0</ele><time>2026-04-12T12:22:51Z</time></trkpt><trkpt lat="43.31895741257524" lon="11.800112623396165"><ele>282.5</ele><time>2026-04-12T12:22:52Z</time></trkpt><trkpt lat="43.31908464093808" lon="11.79984891183396"><ele>279.0</ele><time>2026-04-12T12:22:53Z</time></trkpt><trkpt lat="43.31920443861902" lon="11.799594811557728"><ele>279.0</ele><time>2026-04-12T12:22:54Z</time></trkpt><trkpt lat="43.31933129465626" lon="11.799337514512104"><ele>279.0</ele><time>2026-04-12T12:22:55Z</time></trkpt><trkpt lat="43.31945566337504" lon="11.799079361780748"><ele>280.0</ele><time>2026-04-12T12:22:56Z</time></trkpt><trkpt lat="43.31957446631073" lon="11.79881522990722"><ele>281.0</ele><time>2026-04-12T12:22:57Z</time></trkpt><trkpt lat="43.31968723196929" lon="11.798543385700766"><ele>280.0</ele><time>2026-04-12T12:22:58Z</time></trkpt><trkpt lat="43.319802997929976" lon="11.798268892424007"><ele>279.0</ele><time>2026-04-12T12:22:59Z</time></trkpt><trkpt lat="43.3199138670243" lon="11.797999408824667"><ele>279.0</ele><time>2026-04-12T12:23:00Z</time></trkpt><trkpt lat="43.32002511899758" lon="11.797731428312709"><ele>279.0</ele><time>2026-04-12T12:23:01Z</time></trkpt><trkpt lat="43.3201370970679" lon="11.797461247710515"><ele>279.6666666666667</ele><time>2026-04-12T12:23:02Z</time></trkpt><trkpt lat="43.32025083494057" lon="11.797188590372807"><ele>280.33333333333337</ele><time>2026-04-12T12:23:03Z</time></trkpt><trkpt lat="43.3203598278886" lon="11.796926320312542"><ele>281.0</ele><time>2026-04-12T12:23:04Z</time></trkpt><trkpt lat="43.32047707477944" lon="11.796654246651535"><ele>278.5</ele><time>2026-04-12T12:23:05Z</time></trkpt><trkpt lat="43.32058456655151" lon="11.796387407330633"><ele>276.0</ele><time>2026-04-12T12:23:06Z</time></trkpt><trkpt lat="43.32069303621177" lon="11.796110762363087"><ele>277.5</ele><time>2026-04-12T12:23:07Z</time></trkpt><trkpt lat="43.32075551747153" lon="11.795812498484864"><ele>279.0</ele><time>2026-04-12T12:23:08Z</time></trkpt><trkpt lat="43.320808351390056" lon="11.795505285495697"><ele>279.0</ele><time>2026-04-12T12:23:09Z</time></trkpt><trkpt lat="43.32084781728974" lon="11.795193293317576"><ele>279.0</ele><time>2026-04-12T12:23:10Z</time></trkpt><trkpt lat="43.32087586396071" lon="11.79487604142846"><ele>280.0</ele><time>2026-04-12T12:23:11Z</time></trkpt><trkpt lat="43.320903041283216" lon="11.794559162009369"><ele>281.0</ele><time>2026-04-12T12:23:12Z</time></trkpt><trkpt lat="43.32092543040469" lon="11.794232491694435"><ele>281.0</ele><time>2026-04-12T12:23:13Z</time></trkpt><trkpt lat="43.32095122090006" lon="11.793903074437813"><ele>281.0</ele><time>2026-04-12T12:23:14Z</time></trkpt><trkpt lat="43.32098054106819" lon="11.793572569944327"><ele>282.5</ele><time>2026-04-12T12:23:15Z</time></trkpt><trkpt lat="43.32100913787007" lon="11.793234786764685"><ele>284.0</ele><time>2026-04-12T12:23:16Z</time></trkpt><trkpt lat="43.32104383085318" lon="11.792906743955504"><ele>285.5</ele><time>2026-04-12T12:23:17Z</time></trkpt><trkpt lat="43.3210712039619" lon="11.792575846958725"><ele>287.0</ele><time>2026-04-12T12:23:18Z</time></trkpt><trkpt lat="43.321101684588115" lon="11.792256139798145"><ele>287.0</ele><time>2026-04-12T12:23:19Z</time></trkpt><trkpt lat="43.321132769714985" lon="11.791924264640627"><ele>287.0</ele><time>2026-04-12T12:23:20Z</time></trkpt><trkpt lat="43.3211581203485" lon="11.791594476194966"><ele>289.5</ele><time>2026-04-12T12:23:21Z</time></trkpt><trkpt lat="43.321187298850084" lon="11.791271099105856"><ele>292.0</ele><time>2026-04-12T12:23:22Z</time></trkpt><trkpt lat="43.32121855422581" lon="11.790943166165867"><ele>294.0</ele><time>2026-04-12T12:23:23Z</time></trkpt><trkpt lat="43.32125873027591" lon="11.790612544990372"><ele>296.0</ele><time>2026-04-12T12:23:24Z</time></trkpt><trkpt lat="43.32131400479081" lon="11.79030240873962"><ele>296.0</ele><time>2026-04-12T12:23:25Z</time></trkpt><trkpt lat="43.321384085351056" lon="11.789993866455724"><ele>296.0</ele><time>2026-04-12T12:23:26Z</time></trkpt><trkpt lat="43.321457154769966" lon="11.789671736635768"><ele>297.0</ele><time>2026-04-12T12:23:27Z</time></trkpt><trkpt lat="43.3215252341692" lon="11.789350552422096"><ele>298.0</ele><time>2026-04-12T12:23:28Z</time></trkpt><trkpt lat="43.32160059881297" lon="11.789039499209716"><ele>297.5</ele><time>2026-04-12T12:23:29Z</time></trkpt><trkpt lat="43.321684006470825" lon="11.788728388606847"><ele>297.0</ele><time>2026-04-12T12:23:30Z</time></trkpt><trkpt lat="43.32178471438925" lon="11.788400929370573"><ele>297.0</ele><time>2026-04-12T12:23:31Z</time></trkpt><trkpt lat="43.32189144526427" lon="11.788061362547722"><ele>297.0</ele><time>2026-04-12T12:23:32Z</time></trkpt><trkpt lat="43.32200004335829" lon="11.787716026349596"><ele>294.0</ele><time>2026-04-12T12:23:33Z</time></trkpt><trkpt lat="43.3220893960472" lon="11.787390684781464"><ele>291.0</ele><time>2026-04-12T12:23:34Z</time></trkpt><trkpt lat="43.322161876004294" lon="11.787079046431941"><ele>292.5</ele><time>2026-04-12T12:23:35Z</time></trkpt><trkpt lat="43.32229958037063" lon="11.78674498339001"><ele>294.0</ele><time>2026-04-12T12:23:36Z</time></trkpt><trkpt lat="43.32238853312972" lon="11.786435011466077"><ele>294.0</ele><time>2026-04-12T12:23:37Z</time></trkpt><trkpt lat="43.32247771275149" lon="11.786145721081162"><ele>294.0</ele><time>2026-04-12T12:23:38Z</time></trkpt><trkpt lat="43.32256616015613" lon="11.785863780664165"><ele>295.0</ele><time>2026-04-12T12:23:39Z</time></trkpt><trkpt lat="43.3226526283716" lon="11.785583490446205"><ele>296.0</ele><time>2026-04-12T12:23:40Z</time></trkpt><trkpt lat="43.32274359539549" lon="11.78530896179478"><ele>297.0</ele><time>2026-04-12T12:23:41Z</time></trkpt><trkpt lat="43.322847692049855" lon="11.78504233986801"><ele>297.3333333333333</ele><time>2026-04-12T12:23:42Z</time></trkpt><trkpt lat="43.32296712713919" lon="11.784788401139238"><ele>297.66666666666663</ele><time>2026-04-12T12:23:43Z</time></trkpt><trkpt lat="43.323098507833755" lon="11.784543506389822"><ele>298.0</ele><time>2026-04-12T12:23:44Z</time></trkpt><trkpt lat="43.323235697469066" lon="11.784291070951474"><ele>296.3333333333333</ele><time>2026-04-12T12:23:45Z</time></trkpt><trkpt lat="43.32336262734442" lon="11.78404967831258"><ele>294.6666666666667</ele><time>2026-04-12T12:23:46Z</time></trkpt><trkpt lat="43.32348160291897" lon="11.783817569599545"><ele>293.0</ele><time>2026-04-12T12:23:47Z</time></trkpt><trkpt lat="43.323590633635455" lon="11.783604210032472"><ele>292.6666666666667</ele><time>2026-04-12T12:23:48Z</time></trkpt><trkpt lat="43.32369319976552" lon="11.783399034407328"><ele>292.3333333333333</ele><time>2026-04-12T12:23:49Z</time></trkpt><trkpt lat="43.3237914970553" lon="11.783204401355206"><ele>292.0</ele><time>2026-04-12T12:23:50Z</time></trkpt><trkpt lat="43.32388637694277" lon="11.783012921113063"><ele>292.0</ele><time>2026-04-12T12:23:51Z</time></trkpt><trkpt lat="43.32398202648556" lon="11.782826290538402"><ele>292.0</ele><time>2026-04-12T12:23:52Z</time></trkpt><trkpt lat="43.32408590900411" lon="11.78264132736721"><ele>292.0</ele><time>2026-04-12T12:23:53Z</time></trkpt><trkpt lat="43.324186608439845" lon="11.782456568874787"><ele>291.0</ele><time>2026-04-12T12:23:54Z</time></trkpt><trkpt lat="43.32428396716974" lon="11.782267462471788"><ele>290.0</ele><time>2026-04-12T12:23:55Z</time></trkpt><trkpt lat="43.32437643913525" lon="11.782079542184876"><ele>289.0</ele><time>2026-04-12T12:23:56Z</time></trkpt><trkpt lat="43.32446833475315" lon="11.78189352430867"><ele>289.0</ele><time>2026-04-12T12:23:57Z</time></trkpt><trkpt lat="43.324555017104146" lon="11.781726249933511"><ele>289.0</ele><time>2026-04-12T12:23:58Z</time></trkpt><trkpt lat="43.32463569392376" lon="11.781572950871976"><ele>289.0</ele><time>2026-04-12T12:23:59Z</time></trkpt><trkpt lat="43.32472090415512" lon="11.781422849489866"><ele>289.0</ele><time>2026-04-12T12:24:00Z</time></trkpt><trkpt lat="43.3248134078928" lon="11.781261012272022"><ele>289.0</ele><time>2026-04-12T12:24:01Z</time></trkpt><trkpt lat="43.32490191772894" lon="11.781093877618467"><ele>289.0</ele><time>2026-04-12T12:24:02Z</time></trkpt><trkpt lat="43.32498234003317" lon="11.78092600799377"><ele>289.0</ele><time>2026-04-12T12:24:03Z</time></trkpt><trkpt lat="43.32506311135659" lon="11.780757907819039"><ele>289.0</ele><time>2026-04-12T12:24:04Z</time></trkpt><trkpt lat="43.32514171166223" lon="11.780595137386982"><ele>288.25</ele><time>2026-04-12T12:24:05Z</time></trkpt><trkpt lat="43.32521961286584" lon="11.78043174725106"><ele>287.5</ele><time>2026-04-12T12:24:06Z</time></trkpt><trkpt lat="43.325301838804464" lon="11.78027271028676"><ele>286.75</ele><time>2026-04-12T12:24:07Z</time></trkpt><trkpt lat="43.32538494450838" lon="11.780107067079612"><ele>286.0</ele><time>2026-04-12T12:24:08Z</time></trkpt><trkpt lat="43.32545630354703" lon="11.779933187595772"><ele>286.66666666666663</ele><time>2026-04-12T12:24:09Z</time></trkpt><trkpt lat="43.32551804111231" lon="11.779745436502601"><ele>287.3333333333333</ele><time>2026-04-12T12:24:10Z</time></trkpt><trkpt lat="43.32556604430667" lon="11.779544186483784"><ele>288.0</ele><time>2026-04-12T12:24:11Z</time></trkpt><trkpt lat="43.325591043814235" lon="11.779337362200735"><ele>286.6666666666667</ele><time>2026-04-12T12:24:12Z</time></trkpt><trkpt lat="43.325610230227454" lon="11.779119219514323"><ele>285.33333333333337</ele><time>2026-04-12T12:24:13Z</time></trkpt><trkpt lat="43.3256227081845" lon="11.778903498450463"><ele>284.0</ele><time>2026-04-12T12:24:14Z</time></trkpt><trkpt lat="43.32562061614377" lon="11.778676294319332"><ele>282.6666666666667</ele><time>2026-04-12T12:24:15Z</time></trkpt><trkpt lat="43.32559825773923" lon="11.778462783919045"><ele>281.3333333333333</ele><time>2026-04-12T12:24:16Z</time></trkpt><trkpt lat="43.32556324182178" lon="11.77825034817484"><ele>280.0</ele><time>2026-04-12T12:24:17Z</time></trkpt><trkpt lat="43.32552770300182" lon="11.778048139887053"><ele>277.3333333333333</ele><time>2026-04-12T12:24:18Z</time></trkpt><trkpt lat="43.32548298668025" lon="11.777845168216237"><ele>274.6666666666667</ele><time>2026-04-12T12:24:19Z</time></trkpt><trkpt lat="43.32544639258931" lon="11.777638656441969"><ele>272.0</ele><time>2026-04-12T12:24:20Z</time></trkpt><trkpt lat="43.32541584258304" lon="11.777437155096207"><ele>271.6666666666667</ele><time>2026-04-12T12:24:21Z</time></trkpt><trkpt lat="43.32538543793302" lon="11.77722929695004"><ele>271.3333333333333</ele><time>2026-04-12T12:24:22Z</time></trkpt><trkpt lat="43.32535540262553" lon="11.777018518191941"><ele>271.0</ele><time>2026-04-12T12:24:23Z</time></trkpt><trkpt lat="43.325339902845535" lon="11.776813881511366"><ele>270.66666666666663</ele><time>2026-04-12T12:24:24Z</time></trkpt><trkpt lat="43.32532938684806" lon="11.776597461360257"><ele>270.3333333333333</ele><time>2026-04-12T12:24:25Z</time></trkpt><trkpt lat="43.325324655513775" lon="11.776377154006306"><ele>270.0</ele><time>2026-04-12T12:24:26Z</time></trkpt><trkpt lat="43.32532820822986" lon="11.776158038939014"><ele>269.3333333333333</ele><time>2026-04-12T12:24:27Z</time></trkpt><trkpt lat="43.3253367324627" lon="11.77592906992043"><ele>268.66666666666663</ele><time>2026-04-12T12:24:28Z</time></trkpt><trkpt lat="43.32534439406065" lon="11.775707381445176"><ele>268.0</ele><time>2026-04-12T12:24:29Z</time></trkpt><trkpt lat="43.32534997352096" lon="11.77547081403766"><ele>268.0</ele><time>2026-04-12T12:24:30Z</time></trkpt><trkpt lat="43.325350143202485" lon="11.775234565612603"><ele>268.0</ele><time>2026-04-12T12:24:31Z</time></trkpt><trkpt lat="43.32535281282302" lon="11.774992102531177"><ele>268.0</ele><time>2026-04-12T12:24:32Z</time></trkpt><trkpt lat="43.325356878182674" lon="11.774744409538577"><ele>266.66666666666663</ele><time>2026-04-12T12:24:33Z</time></trkpt><trkpt lat="43.32535980163105" lon="11.774497285842086"><ele>265.3333333333333</ele><time>2026-04-12T12:24:34Z</time></trkpt><trkpt lat="43.32535883735012" lon="11.774242634403613"><ele>264.0</ele><time>2026-04-12T12:24:35Z</time></trkpt><trkpt lat="43.32535350535315" lon="11.77398387197262"><ele>263.0</ele><time>2026-04-12T12:24:36Z</time></trkpt><trkpt lat="43.32533363620832" lon="11.773723924896885"><ele>262.0</ele><time>2026-04-12T12:24:37Z</time></trkpt><trkpt lat="43.32529430757089" lon="11.77346026297482"><ele>261.0</ele><time>2026-04-12T12:24:38Z</time></trkpt><trkpt lat="43.32524578146711" lon="11.773203621798583"><ele>260.6666666666667</ele><time>2026-04-12T12:24:39Z</time></trkpt><trkpt lat="43.32519042338726" lon="11.772941445907264"><ele>260.33333333333337</ele><time>2026-04-12T12:24:40Z</time></trkpt><trkpt lat="43.32512959742761" lon="11.772680012482986"><ele>260.0</ele><time>2026-04-12T12:24:41Z</time></trkpt><trkpt lat="43.32507045145616" lon="11.772420319498186"><ele>260.0</ele><time>2026-04-12T12:24:42Z</time></trkpt><trkpt lat="43.32501284937008" lon="11.772155751298243"><ele>260.0</ele><time>2026-04-12T12:24:43Z</time></trkpt><trkpt lat="43.324956688553655" lon="11.771898768192514"><ele>260.0</ele><time>2026-04-12T12:24:44Z</time></trkpt><trkpt lat="43.32490859235881" lon="11.771667402146937"><ele>259.33333333333337</ele><time>2026-04-12T12:24:45Z</time></trkpt><trkpt lat="43.324861339623496" lon="11.771443873598063"><ele>258.6666666666667</ele><time>2026-04-12T12:24:46Z</time></trkpt><trkpt lat="43.32483698876256" lon="11.771211029299451"><ele>258.0</ele><time>2026-04-12T12:24:47Z</time></trkpt><trkpt lat="43.32480686768664" lon="11.770978859329805"><ele>257.6666666666667</ele><time>2026-04-12T12:24:48Z</time></trkpt><trkpt lat="43.32479035573742" lon="11.770743509666294"><ele>257.33333333333337</ele><time>2026-04-12T12:24:49Z</time></trkpt><trkpt lat="43.32479453826076" lon="11.770496737348164"><ele>257.0</ele><time>2026-04-12T12:24:50Z</time></trkpt><trkpt lat="43.32481616953716" lon="11.770248793879954"><ele>256.6666666666667</ele><time>2026-04-12T12:24:51Z</time></trkpt><trkpt lat="43.3248323604264" lon="11.7700018351582"><ele>256.3333333333333</ele><time>2026-04-12T12:24:52Z</time></trkpt><trkpt lat="43.32487538215749" lon="11.769751480416778"><ele>256.0</ele><time>2026-04-12T12:24:53Z</time></trkpt><trkpt lat="43.32492769604104" lon="11.769511846304454"><ele>257.3333333333333</ele><time>2026-04-12T12:24:54Z</time></trkpt><trkpt lat="43.32499113055483" lon="11.76926681116875"><ele>258.6666666666667</ele><time>2026-04-12T12:24:55Z</time></trkpt><trkpt lat="43.32506432947537" lon="11.76902856313257"><ele>260.0</ele><time>2026-04-12T12:24:56Z</time></trkpt><trkpt lat="43.325149250245204" lon="11.768800905487698"><ele>260.0</ele><time>2026-04-12T12:24:57Z</time></trkpt><trkpt lat="43.325241719829855" lon="11.768578127829988"><ele>260.0</ele><time>2026-04-12T12:24:58Z</time></trkpt><trkpt lat="43.325349078367026" lon="11.768384717541135"><ele>260.0</ele><time>2026-04-12T12:24:59Z</time></trkpt><trkpt lat="43.32541518752021" lon="11.768176230420606"><ele>260.0</ele><time>2026-04-12T12:25:00Z</time></trkpt><trkpt lat="43.325488478974734" lon="11.76798605687597"><ele>260.0</ele><time>2026-04-12T12:25:01Z</time></trkpt><trkpt lat="43.32556496352019" lon="11.767774639862209"><ele>260.0</ele><time>2026-04-12T12:25:02Z</time></trkpt><trkpt lat="43.32563396364305" lon="11.767563391322902"><ele>260.0</ele><time>2026-04-12T12:25:03Z</time></trkpt><trkpt lat="43.32570077270428" lon="11.767340474435613"><ele>260.0</ele><time>2026-04-12T12:25:04Z</time></trkpt><trkpt lat="43.3257591042701" lon="11.767123524384761"><ele>260.0</ele><time>2026-04-12T12:25:05Z</time></trkpt><trkpt lat="43.325821516410244" lon="11.7668833821694"><ele>259.0</ele><time>2026-04-12T12:25:06Z</time></trkpt><trkpt lat="43.325879123002814" lon="11.766663248740173"><ele>258.0</ele><time>2026-04-12T12:25:07Z</time></trkpt><trkpt lat="43.32593046402269" lon="11.766457192141996"><ele>257.0</ele><time>2026-04-12T12:25:08Z</time></trkpt><trkpt lat="43.32598900278476" lon="11.76625696562274"><ele>257.0</ele><time>2026-04-12T12:25:09Z</time></trkpt><trkpt lat="43.32607594170553" lon="11.76606820915442"><ele>257.0</ele><time>2026-04-12T12:25:10Z</time></trkpt><trkpt lat="43.32616383898631" lon="11.765868814517395"><ele>257.0</ele><time>2026-04-12T12:25:11Z</time></trkpt><trkpt lat="43.32625706959586" lon="11.765679853541103"><ele>257.0</ele><time>2026-04-12T12:25:12Z</time></trkpt><trkpt lat="43.326359500450806" lon="11.765485236680876"><ele>257.0</ele><time>2026-04-12T12:25:13Z</time></trkpt><trkpt lat="43.32646364631952" lon="11.76528833967213"><ele>257.0</ele><time>2026-04-12T12:25:14Z</time></trkpt><trkpt lat="43.32656815140021" lon="11.765092854708119"><ele>257.6666666666667</ele><time>2026-04-12T12:25:15Z</time></trkpt><trkpt lat="43.32667819439935" lon="11.764893868899534"><ele>258.3333333333333</ele><time>2026-04-12T12:25:16Z</time></trkpt><trkpt lat="43.32678863404086" lon="11.764694510546308"><ele>259.0</ele><time>2026-04-12T12:25:17Z</time></trkpt><trkpt lat="43.3268799686237" lon="11.764486791543991"><ele>259.3333333333333</ele><time>2026-04-12T12:25:18Z</time></trkpt><trkpt lat="43.32697047137023" lon="11.76427996291986"><ele>259.6666666666667</ele><time>2026-04-12T12:25:19Z</time></trkpt><trkpt lat="43.32705130024545" lon="11.764058687624358"><ele>260.0</ele><time>2026-04-12T12:25:20Z</time></trkpt><trkpt lat="43.327113809791065" lon="11.763817910451557"><ele>260.0</ele><time>2026-04-12T12:25:21Z</time></trkpt><trkpt lat="43.3271551260991" lon="11.763571903204255"><ele>260.0</ele><time>2026-04-12T12:25:22Z</time></trkpt><trkpt lat="43.32718112279905" lon="11.763317021882292"><ele>260.0</ele><time>2026-04-12T12:25:23Z</time></trkpt><trkpt lat="43.3271938285905" lon="11.763066427210049"><ele>260.6666666666667</ele><time>2026-04-12T12:25:24Z</time></trkpt><trkpt lat="43.327198222090445" lon="11.762808439166303"><ele>261.3333333333333</ele><time>2026-04-12T12:25:25Z</time></trkpt><trkpt lat="43.32720155861257" lon="11.76255271679983"><ele>262.0</ele><time>2026-04-12T12:25:26Z</time></trkpt><trkpt lat="43.32720860916775" lon="11.762301442011466"><ele>262.0</ele><time>2026-04-12T12:25:27Z</time></trkpt><trkpt lat="43.32723742311739" lon="11.762050635554472"><ele>262.0</ele><time>2026-04-12T12:25:28Z</time></trkpt><trkpt lat="43.32724379485308" lon="11.76181442624124"><ele>262.0</ele><time>2026-04-12T12:25:29Z</time></trkpt><trkpt lat="43.327265248568814" lon="11.761599896685821"><ele>263.3333333333333</ele><time>2026-04-12T12:25:30Z</time></trkpt><trkpt lat="43.32733423492882" lon="11.761394998939327"><ele>264.6666666666667</ele><time>2026-04-12T12:25:31Z</time></trkpt><trkpt lat="43.32740747211188" lon="11.761218847441844"><ele>266.0</ele><time>2026-04-12T12:25:32Z</time></trkpt><trkpt lat="43.32749631238799" lon="11.761036524408489"><ele>266.25</ele><time>2026-04-12T12:25:33Z</time></trkpt><trkpt lat="43.32758529055321" lon="11.760872750283585"><ele>266.5</ele><time>2026-04-12T12:25:34Z</time></trkpt><trkpt lat="43.327664009485076" lon="11.760715190811954"><ele>266.75</ele><time>2026-04-12T12:25:35Z</time></trkpt><trkpt lat="43.32773066814015" lon="11.760546820455666"><ele>267.0</ele><time>2026-04-12T12:25:36Z</time></trkpt><trkpt lat="43.327780175699175" lon="11.760362096530061"><ele>267.6666666666667</ele><time>2026-04-12T12:25:37Z</time></trkpt><trkpt lat="43.32782531853433" lon="11.760161521699722"><ele>268.33333333333337</ele><time>2026-04-12T12:25:38Z</time></trkpt><trkpt lat="43.327858185417796" lon="11.759947839573545"><ele>269.0</ele><time>2026-04-12T12:25:39Z</time></trkpt><trkpt lat="43.327907259566835" lon="11.759738343434872"><ele>269.0</ele><time>2026-04-12T12:25:40Z</time></trkpt><trkpt lat="43.327956028253176" lon="11.759531077263302"><ele>269.0</ele><time>2026-04-12T12:25:41Z</time></trkpt><trkpt lat="43.32800324777533" lon="11.759322236615144"><ele>269.0</ele><time>2026-04-12T12:25:42Z</time></trkpt><trkpt lat="43.328054237292136" lon="11.759110250450965"><ele>270.0</ele><time>2026-04-12T12:25:43Z</time></trkpt><trkpt lat="43.32810018736599" lon="11.75889895097991"><ele>271.0</ele><time>2026-04-12T12:25:44Z</time></trkpt><trkpt lat="43.32814690948431" lon="11.758686098267852"><ele>272.0</ele><time>2026-04-12T12:25:45Z</time></trkpt><trkpt lat="43.328195735454266" lon="11.758453998950344"><ele>272.0</ele><time>2026-04-12T12:25:46Z</time></trkpt><trkpt lat="43.32824649995037" lon="11.75821967662026"><ele>272.0</ele><time>2026-04-12T12:25:47Z</time></trkpt><trkpt lat="43.32830063671243" lon="11.757988348617692"><ele>272.0</ele><time>2026-04-12T12:25:48Z</time></trkpt><trkpt lat="43.328356461923086" lon="11.757751290601828"><ele>272.0</ele><time>2026-04-12T12:25:49Z</time></trkpt><trkpt lat="43.3284142573827" lon="11.757513266370069"><ele>272.0</ele><time>2026-04-12T12:25:50Z</time></trkpt><trkpt lat="43.32847193743979" lon="11.7572770412216"><ele>272.0</ele><time>2026-04-12T12:25:51Z</time></trkpt><trkpt lat="43.32852819042843" lon="11.757031666164742"><ele>272.6666666666667</ele><time>2026-04-12T12:25:52Z</time></trkpt><trkpt lat="43.328583392624054" lon="11.756792880510227"><ele>273.3333333333333</ele><time>2026-04-12T12:25:53Z</time></trkpt><trkpt lat="43.328636433437474" lon="11.75655070014631"><ele>274.0</ele><time>2026-04-12T12:25:54Z</time></trkpt><trkpt lat="43.328690675242164" lon="11.756300926606555"><ele>274.0</ele><time>2026-04-12T12:25:55Z</time></trkpt><trkpt lat="43.32874472127471" lon="11.756054642373718"><ele>274.0</ele><time>2026-04-12T12:25:56Z</time></trkpt><trkpt lat="43.32879996096325" lon="11.755812475217255"><ele>274.0</ele><time>2026-04-12T12:25:57Z</time></trkpt><trkpt lat="43.328857637815275" lon="11.755569021472365"><ele>276.0</ele><time>2026-04-12T12:25:58Z</time></trkpt><trkpt lat="43.328916003103394" lon="11.755334157154106"><ele>278.0</ele><time>2026-04-12T12:25:59Z</time></trkpt><trkpt lat="43.32897363947721" lon="11.755096577420066"><ele>280.0</ele><time>2026-04-12T12:26:00Z</time></trkpt><trkpt lat="43.32903126743653" lon="11.754863984908814"><ele>282.0</ele><time>2026-04-12T12:26:01Z</time></trkpt><trkpt lat="43.329078233689835" lon="11.754621517720514"><ele>284.0</ele><time>2026-04-12T12:26:02Z</time></trkpt><trkpt lat="43.329091808242715" lon="11.754375441899926"><ele>286.0</ele><time>2026-04-12T12:26:03Z</time></trkpt><trkpt lat="43.3290575477011" lon="11.754153723197925"><ele>286.66666666666663</ele><time>2026-04-12T12:26:04Z</time></trkpt><trkpt lat="43.328990752933976" lon="11.75395941613341"><ele>287.3333333333333</ele><time>2026-04-12T12:26:05Z</time></trkpt><trkpt lat="43.32889848161128" lon="11.753777199874126"><ele>288.0</ele><time>2026-04-12T12:26:06Z</time></trkpt><trkpt lat="43.32879709618691" lon="11.753592373904251"><ele>287.0</ele><time>2026-04-12T12:26:07Z</time></trkpt><trkpt lat="43.32872969952052" lon="11.753385277967661"><ele>286.0</ele><time>2026-04-12T12:26:08Z</time></trkpt><trkpt lat="43.32873633855395" lon="11.753148270145225"><ele>285.0</ele><time>2026-04-12T12:26:09Z</time></trkpt><trkpt lat="43.3287741740008" lon="11.75291044728534"><ele>286.3333333333333</ele><time>2026-04-12T12:26:10Z</time></trkpt><trkpt lat="43.328817834552204" lon="11.752656076530831"><ele>287.66666666666663</ele><time>2026-04-12T12:26:11Z</time></trkpt><trkpt lat="43.32888916901933" lon="11.752394957470958"><ele>289.0</ele><time>2026-04-12T12:26:12Z</time></trkpt><trkpt lat="43.32895277514288" lon="11.752130293725482"><ele>286.0</ele><time>2026-04-12T12:26:13Z</time></trkpt><trkpt lat="43.32901745362564" lon="11.751859854021362"><ele>283.0</ele><time>2026-04-12T12:26:14Z</time></trkpt><trkpt lat="43.32908640936083" lon="11.751590006686888"><ele>280.0</ele><time>2026-04-12T12:26:15Z</time></trkpt><trkpt lat="43.329153731981215" lon="11.751320579755612"><ele>280.0</ele><time>2026-04-12T12:26:16Z</time></trkpt><trkpt lat="43.329219452744546" lon="11.751053871019575"><ele>280.0</ele><time>2026-04-12T12:26:17Z</time></trkpt><trkpt lat="43.3292777424949" lon="11.750796524713202"><ele>280.0</ele><time>2026-04-12T12:26:18Z</time></trkpt><trkpt lat="43.32933113088558" lon="11.750543259476235"><ele>277.66666666666663</ele><time>2026-04-12T12:26:19Z</time></trkpt><trkpt lat="43.32937705781688" lon="11.750293147192549"><ele>275.3333333333333</ele><time>2026-04-12T12:26:20Z</time></trkpt><trkpt lat="43.329404434841024" lon="11.75003982951665"><ele>273.0</ele><time>2026-04-12T12:26:21Z</time></trkpt><trkpt lat="43.32941361827173" lon="11.74977797694329"><ele>270.3333333333333</ele><time>2026-04-12T12:26:22Z</time></trkpt><trkpt lat="43.32939969488332" lon="11.749501370795665"><ele>267.66666666666663</ele><time>2026-04-12T12:26:23Z</time></trkpt><trkpt lat="43.329365137641545" lon="11.749196020095917"><ele>265.0</ele><time>2026-04-12T12:26:24Z</time></trkpt><trkpt lat="43.329325052818966" lon="11.748909059884067"><ele>264.0</ele><time>2026-04-12T12:26:25Z</time></trkpt><trkpt lat="43.329283984374015" lon="11.748646302386474"><ele>263.0</ele><time>2026-04-12T12:26:26Z</time></trkpt><trkpt lat="43.32924650749102" lon="11.748402888856525"><ele>262.0</ele><time>2026-04-12T12:26:27Z</time></trkpt><trkpt lat="43.329213914796725" lon="11.748153405287994"><ele>262.0</ele><time>2026-04-12T12:26:28Z</time></trkpt><trkpt lat="43.329184038942" lon="11.74790124470013"><ele>262.0</ele><time>2026-04-12T12:26:29Z</time></trkpt><trkpt lat="43.3291506918575" lon="11.74763717942605"><ele>262.0</ele><time>2026-04-12T12:26:30Z</time></trkpt><trkpt lat="43.32912640647478" lon="11.747376174066684"><ele>261.66666666666663</ele><time>2026-04-12T12:26:31Z</time></trkpt><trkpt lat="43.329086844235924" lon="11.747089758193432"><ele>261.3333333333333</ele><time>2026-04-12T12:26:32Z</time></trkpt><trkpt lat="43.32905498789705" lon="11.74680563994062"><ele>261.0</ele><time>2026-04-12T12:26:33Z</time></trkpt><trkpt lat="43.32902150283832" lon="11.746517835167475"><ele>261.0</ele><time>2026-04-12T12:26:34Z</time></trkpt><trkpt lat="43.32898497932811" lon="11.746230544754262"><ele>261.0</ele><time>2026-04-12T12:26:35Z</time></trkpt><trkpt lat="43.32894070009729" lon="11.745948511369365"><ele>261.0</ele><time>2026-04-12T12:26:36Z</time></trkpt><trkpt lat="43.328887047266655" lon="11.745657415342112"><ele>260.6666666666667</ele><time>2026-04-12T12:26:37Z</time></trkpt><trkpt lat="43.32882715271295" lon="11.745367851637162"><ele>260.33333333333337</ele><time>2026-04-12T12:26:38Z</time></trkpt><trkpt lat="43.3287605312391" lon="11.745066497205197"><ele>260.0</ele><time>2026-04-12T12:26:39Z</time></trkpt><trkpt lat="43.32868561288885" lon="11.744758097183343"><ele>260.0</ele><time>2026-04-12T12:26:40Z</time></trkpt><trkpt lat="43.32861221737007" lon="11.744448292111414"><ele>260.0</ele><time>2026-04-12T12:26:41Z</time></trkpt><trkpt lat="43.328543271843245" lon="11.744161872819184"><ele>260.0</ele><time>2026-04-12T12:26:42Z</time></trkpt><trkpt lat="43.32847384906627" lon="11.743871568552212"><ele>260.0</ele><time>2026-04-12T12:26:43Z</time></trkpt><trkpt lat="43.32840144485303" lon="11.743578238980112"><ele>260.0</ele><time>2026-04-12T12:26:44Z</time></trkpt><trkpt lat="43.32833366221264" lon="11.743288567454501"><ele>260.0</ele><time>2026-04-12T12:26:45Z</time></trkpt><trkpt lat="43.32826662284575" lon="11.743001634351293"><ele>260.0</ele><time>2026-04-12T12:26:46Z</time></trkpt><trkpt lat="43.32819909344213" lon="11.742717280549723"><ele>260.0</ele><time>2026-04-12T12:26:47Z</time></trkpt><trkpt lat="43.32813168319229" lon="11.742440085512058"><ele>260.0</ele><time>2026-04-12T12:26:48Z</time></trkpt><trkpt lat="43.328063816552564" lon="11.742157656345428"><ele>260.0</ele><time>2026-04-12T12:26:49Z</time></trkpt><trkpt lat="43.32799398775886" lon="11.741867362686856"><ele>260.0</ele><time>2026-04-12T12:26:50Z</time></trkpt><trkpt lat="43.32792215556286" lon="11.741570724475972"><ele>260.5</ele><time>2026-04-12T12:26:51Z</time></trkpt><trkpt lat="43.32784945675474" lon="11.741268181802123"><ele>261.0</ele><time>2026-04-12T12:26:52Z</time></trkpt><trkpt lat="43.327777152299966" lon="11.740972666792148"><ele>261.3333333333333</ele><time>2026-04-12T12:26:53Z</time></trkpt><trkpt lat="43.327706903672286" lon="11.740686223094796"><ele>261.66666666666663</ele><time>2026-04-12T12:26:54Z</time></trkpt><trkpt lat="43.32764304321" lon="11.740408820200457"><ele>262.0</ele><time>2026-04-12T12:26:55Z</time></trkpt><trkpt lat="43.32758421498081" lon="11.740150116373037"><ele>262.3333333333333</ele><time>2026-04-12T12:26:56Z</time></trkpt><trkpt lat="43.327536253643075" lon="11.739912014653145"><ele>262.6666666666667</ele><time>2026-04-12T12:26:57Z</time></trkpt><trkpt lat="43.32749349573695" lon="11.73969135071571"><ele>263.0</ele><time>2026-04-12T12:26:58Z</time></trkpt><trkpt lat="43.327475513373" lon="11.73948784474493"><ele>263.0</ele><time>2026-04-12T12:26:59Z</time></trkpt><trkpt lat="43.327489595173546" lon="11.73926837279764"><ele>263.0</ele><time>2026-04-12T12:27:00Z</time></trkpt><trkpt lat="43.327542514180074" lon="11.739036212153751"><ele>263.0</ele><time>2026-04-12T12:27:01Z</time></trkpt><trkpt lat="43.32760844249896" lon="11.738792868990727"><ele>263.0</ele><time>2026-04-12T12:27:02Z</time></trkpt><trkpt lat="43.32767396284139" lon="11.738578267985577"><ele>263.0</ele><time>2026-04-12T12:27:03Z</time></trkpt><trkpt lat="43.327732279524696" lon="11.73837256902798"><ele>263.0</ele><time>2026-04-12T12:27:04Z</time></trkpt><trkpt lat="43.32779446816148" lon="11.738158820832805"><ele>263.0</ele><time>2026-04-12T12:27:05Z</time></trkpt><trkpt lat="43.32785814556136" lon="11.737936074490174"><ele>263.0</ele><time>2026-04-12T12:27:06Z</time></trkpt><trkpt lat="43.327922183288806" lon="11.73772388623314"><ele>263.0</ele><time>2026-04-12T12:27:07Z</time></trkpt><trkpt lat="43.32798755209155" lon="11.737533095827581"><ele>264.33333333333337</ele><time>2026-04-12T12:27:08Z</time></trkpt><trkpt lat="43.32806107486923" lon="11.737342408632715"><ele>265.6666666666667</ele><time>2026-04-12T12:27:09Z</time></trkpt><trkpt lat="43.32813810838514" lon="11.73716139224507"><ele>267.0</ele><time>2026-04-12T12:27:10Z</time></trkpt><trkpt lat="43.3282165340436" lon="11.736982800111937"><ele>266.3333333333333</ele><time>2026-04-12T12:27:11Z</time></trkpt><trkpt lat="43.328297822136626" lon="11.736793637540366"><ele>265.66666666666663</ele><time>2026-04-12T12:27:12Z</time></trkpt><trkpt lat="43.32838846828346" lon="11.736593216453377"><ele>265.0</ele><time>2026-04-12T12:27:13Z</time></trkpt><trkpt lat="43.32848147193036" lon="11.736376304800714"><ele>265.0</ele><time>2026-04-12T12:27:14Z</time></trkpt><trkpt lat="43.32858141853737" lon="11.736142953003123"><ele>265.0</ele><time>2026-04-12T12:27:15Z</time></trkpt><trkpt lat="43.3286804482408" lon="11.735910815418574"><ele>265.0</ele><time>2026-04-12T12:27:16Z</time></trkpt><trkpt lat="43.32878823711551" lon="11.735676034810902"><ele>264.0</ele><time>2026-04-12T12:27:17Z</time></trkpt><trkpt lat="43.328912183888086" lon="11.73546331928247"><ele>263.0</ele><time>2026-04-12T12:27:18Z</time></trkpt><trkpt lat="43.329056981817935" lon="11.735270003878425"><ele>262.0</ele><time>2026-04-12T12:27:19Z</time></trkpt><trkpt lat="43.32921110454361" lon="11.73510417037818"><ele>262.0</ele><time>2026-04-12T12:27:20Z</time></trkpt><trkpt lat="43.32932098557666" lon="11.734905797162105"><ele>262.0</ele><time>2026-04-12T12:27:21Z</time></trkpt><trkpt lat="43.32950081263778" lon="11.734782431445208"><ele>262.0</ele><time>2026-04-12T12:27:22Z</time></trkpt><trkpt lat="43.32962484579434" lon="11.734635254209165"><ele>262.5</ele><time>2026-04-12T12:27:23Z</time></trkpt><trkpt lat="43.32974876389779" lon="11.734485844670493"><ele>263.0</ele><time>2026-04-12T12:27:24Z</time></trkpt><trkpt lat="43.33013481390667" lon="11.734307954442372"><ele>263.33333333333337</ele><time>2026-04-12T12:27:26Z</time></trkpt><trkpt lat="43.3302221430795" lon="11.734114692589266"><ele>263.6666666666667</ele><time>2026-04-12T12:27:27Z</time></trkpt><trkpt lat="43.33030356021897" lon="11.73393514873777"><ele>264.0</ele><time>2026-04-12T12:27:28Z</time></trkpt><trkpt lat="43.330385847610266" lon="11.733753685777112"><ele>264.0</ele><time>2026-04-12T12:27:29Z</time></trkpt><trkpt lat="43.330147746427365" lon="11.733314892664128"><ele>264.0</ele><time>2026-04-12T12:27:30Z</time></trkpt><trkpt lat="43.33013911860876" lon="11.733071929982234"><ele>264.0</ele><time>2026-04-12T12:27:31Z</time></trkpt><trkpt lat="43.33014918440493" lon="11.732838116563315"><ele>264.0</ele><time>2026-04-12T12:27:32Z</time></trkpt><trkpt lat="43.33018518057818" lon="11.73260780598876"><ele>264.0</ele><time>2026-04-12T12:27:33Z</time></trkpt><trkpt lat="43.330244976452875" lon="11.732385600312826"><ele>264.75</ele><time>2026-04-12T12:27:34Z</time></trkpt><trkpt lat="43.33031161789007" lon="11.732202703007223"><ele>265.5</ele><time>2026-04-12T12:27:35Z</time></trkpt><trkpt lat="43.33038652638446" lon="11.732027650575313"><ele>266.25</ele><time>2026-04-12T12:27:36Z</time></trkpt><trkpt lat="43.330468989230894" lon="11.731882701528155"><ele>267.0</ele><time>2026-04-12T12:27:37Z</time></trkpt><trkpt lat="43.3305569016892" lon="11.731760500523992"><ele>266.8</ele><time>2026-04-12T12:27:38Z</time></trkpt><trkpt lat="43.33064874215097" lon="11.731650098587268"><ele>266.6</ele><time>2026-04-12T12:27:39Z</time></trkpt><trkpt lat="43.330737125171126" lon="11.731547420244052"><ele>266.40000000000003</ele><time>2026-04-12T12:27:40Z</time></trkpt><trkpt lat="43.33082503486581" lon="11.731458297417555"><ele>266.2</ele><time>2026-04-12T12:27:41Z</time></trkpt><trkpt lat="43.330909989799764" lon="11.731381009215534"><ele>266.0</ele><time>2026-04-12T12:27:42Z</time></trkpt><trkpt lat="43.33099490146731" lon="11.731320928135851"><ele>266.0</ele><time>2026-04-12T12:27:43Z</time></trkpt><trkpt lat="43.33107933953963" lon="11.731270032585659"><ele>266.0</ele><time>2026-04-12T12:27:44Z</time></trkpt><trkpt lat="43.331159722511416" lon="11.731219290597156"><ele>266.0</ele><time>2026-04-12T12:27:45Z</time></trkpt><trkpt lat="43.33124402875817" lon="11.731169986662657"><ele>266.0</ele><time>2026-04-12T12:27:46Z</time></trkpt><trkpt lat="43.33135280202994" lon="11.731108297973941"><ele>266.0</ele><time>2026-04-12T12:27:47Z</time></trkpt></trkseg></trk></gpx>